STX15FR WIII-FNBJ
Flight info
| Callsign | STX15FR |
|---|---|
| Flight time | N/A |
| Altitude | 32000 |
| Route | GUPUB B325 CC G200 DUBAG/N0496F340 G200 KADEM UT200 UTROD/N0485F360 DCT IMPAN/N0486F350 Q204 OKMIN/N0484F360 Q200 MP211 Q202 SOBAT UA401 TE UA400 UVUKI/N0481F380 UA400 VOTAL |
| Aircraft | B77W/H-SDE1E2E3FGHIJ2J3J4J5M1RWXY/LB1D1 |
Departure
| Time | N/A |
|---|---|
| Airport | Soekarno-Hatta International Airport (WIII) |
Arrival
| Time | 2026-04-12 05:17 |
|---|---|
| Airport | Dr. Antonio Agostinho Neto International Airport (FNBJ) |
| Time | Latitude | Longitude | Altitude | Speed | Heading |
|---|---|---|---|---|---|
| 2026-04-11 20:23 | -17.05218 | 78.63778 | 33999 ft | 460 kts | 258° |
| 2026-04-11 20:23 | -17.05936 | 78.60507 | 34001 ft | 460 kts | 258° |
| 2026-04-11 20:23 | -17.07366 | 78.53985 | 34015 ft | 460 kts | 258° |
| 2026-04-11 20:24 | -17.08791 | 78.47478 | 34003 ft | 459 kts | 258° |
| 2026-04-11 20:24 | -17.10210 | 78.40987 | 33995 ft | 458 kts | 258° |
| 2026-04-11 20:25 | -17.11616 | 78.34545 | 33997 ft | 457 kts | 258° |
| 2026-04-11 20:25 | -17.13023 | 78.28085 | 34003 ft | 456 kts | 258° |
| 2026-04-11 20:26 | -17.14429 | 78.21621 | 34002 ft | 455 kts | 258° |
| 2026-04-11 20:26 | -17.15829 | 78.15171 | 34009 ft | 455 kts | 258° |
| 2026-04-11 20:27 | -17.17229 | 78.08712 | 34004 ft | 456 kts | 259° |
| 2026-04-11 20:27 | -17.18630 | 78.02241 | 34000 ft | 456 kts | 259° |
| 2026-04-11 20:28 | -17.19972 | 77.96031 | 34002 ft | 457 kts | 259° |
| 2026-04-11 20:28 | -17.21369 | 77.89557 | 34002 ft | 457 kts | 259° |
| 2026-04-11 20:29 | -17.22768 | 77.83065 | 34001 ft | 457 kts | 259° |
| 2026-04-11 20:29 | -17.24163 | 77.76575 | 34007 ft | 457 kts | 259° |
| 2026-04-11 20:30 | -17.25558 | 77.70080 | 34007 ft | 457 kts | 259° |
| 2026-04-11 20:30 | -17.26949 | 77.63588 | 34014 ft | 457 kts | 259° |
| 2026-04-11 20:31 | -17.28340 | 77.57092 | 34010 ft | 457 kts | 259° |
| 2026-04-11 20:31 | -17.29726 | 77.50601 | 34005 ft | 457 kts | 259° |
| 2026-04-11 20:32 | -17.31110 | 77.44112 | 34004 ft | 457 kts | 259° |
| 2026-04-11 20:32 | -17.32491 | 77.37630 | 34004 ft | 456 kts | 259° |
| 2026-04-11 20:33 | -17.33868 | 77.31152 | 34027 ft | 456 kts | 259° |
| 2026-04-11 20:33 | -17.35240 | 77.24685 | 34014 ft | 455 kts | 259° |
| 2026-04-11 20:34 | -17.36608 | 77.18233 | 34010 ft | 453 kts | 259° |
| 2026-04-11 20:34 | -17.37969 | 77.11795 | 34008 ft | 452 kts | 259° |
| 2026-04-11 20:35 | -17.39323 | 77.05384 | 34006 ft | 451 kts | 259° |
| 2026-04-11 20:35 | -17.40623 | 76.99217 | 34012 ft | 450 kts | 259° |
| 2026-04-11 20:36 | -17.41970 | 76.92817 | 34016 ft | 450 kts | 259° |
| 2026-04-11 20:36 | -17.43317 | 76.86408 | 34003 ft | 451 kts | 259° |
| 2026-04-11 20:37 | -17.44662 | 76.79995 | 34013 ft | 451 kts | 259° |
| 2026-04-11 20:37 | -17.46009 | 76.73563 | 34014 ft | 452 kts | 259° |
| 2026-04-11 20:38 | -17.47353 | 76.67137 | 34001 ft | 452 kts | 259° |
| 2026-04-11 20:38 | -17.48697 | 76.60700 | 34014 ft | 453 kts | 259° |
| 2026-04-11 20:39 | -17.50039 | 76.54258 | 34017 ft | 453 kts | 259° |
| 2026-04-11 20:39 | -17.51380 | 76.47813 | 34012 ft | 453 kts | 259° |
| 2026-04-11 20:40 | -17.52717 | 76.41373 | 34018 ft | 452 kts | 259° |
| 2026-04-11 20:40 | -17.54053 | 76.34930 | 34004 ft | 452 kts | 259° |
| 2026-04-11 20:41 | -17.55385 | 76.28494 | 34010 ft | 452 kts | 259° |
| 2026-04-11 20:41 | -17.56714 | 76.22060 | 34000 ft | 452 kts | 259° |
| 2026-04-11 20:42 | -17.58032 | 76.15670 | 34010 ft | 452 kts | 259° |
| 2026-04-11 20:42 | -17.59357 | 76.09235 | 34013 ft | 451 kts | 259° |
| 2026-04-11 20:43 | -17.60679 | 76.02805 | 34010 ft | 452 kts | 259° |
| 2026-04-11 20:43 | -17.61945 | 75.96634 | 34026 ft | 452 kts | 259° |
| 2026-04-11 20:44 | -17.63265 | 75.90192 | 34010 ft | 452 kts | 259° |
| 2026-04-11 20:44 | -17.64582 | 75.83751 | 34020 ft | 452 kts | 259° |
| 2026-04-11 20:45 | -17.65898 | 75.77305 | 34030 ft | 452 kts | 259° |
| 2026-04-11 20:45 | -17.67213 | 75.70854 | 34030 ft | 453 kts | 259° |
| 2026-04-11 20:46 | -17.68527 | 75.64394 | 34012 ft | 453 kts | 259° |
| 2026-04-11 20:47 | -17.70494 | 75.54701 | 34008 ft | 453 kts | 259° |
| 2026-04-11 20:47 | -17.71803 | 75.48240 | 34020 ft | 453 kts | 259° |
| 2026-04-11 20:48 | -17.73111 | 75.41770 | 34010 ft | 453 kts | 259° |
| 2026-04-11 20:48 | -17.74418 | 75.35297 | 34012 ft | 453 kts | 260° |
| 2026-04-11 20:49 | -17.75720 | 75.28831 | 34021 ft | 453 kts | 260° |
| 2026-04-11 20:49 | -17.77022 | 75.22359 | 34013 ft | 453 kts | 260° |
| 2026-04-11 20:50 | -17.78321 | 75.15887 | 34017 ft | 453 kts | 260° |
| 2026-04-11 20:50 | -17.79618 | 75.09414 | 34016 ft | 453 kts | 260° |
| 2026-04-11 20:51 | -17.80916 | 75.02930 | 34012 ft | 454 kts | 260° |
| 2026-04-11 20:51 | -17.82137 | 74.96724 | 34016 ft | 453 kts | 261° |
| 2026-04-11 20:52 | -17.83343 | 74.90230 | 34026 ft | 453 kts | 261° |
| 2026-04-11 20:52 | -17.84536 | 74.83737 | 34020 ft | 453 kts | 261° |
| 2026-04-11 20:53 | -17.85731 | 74.77261 | 34022 ft | 452 kts | 261° |
| 2026-04-11 20:53 | -17.86928 | 74.70790 | 34021 ft | 451 kts | 261° |
| 2026-04-11 20:54 | -17.88122 | 74.64328 | 34024 ft | 450 kts | 261° |
| 2026-04-11 20:54 | -17.89313 | 74.57876 | 34022 ft | 450 kts | 261° |
| 2026-04-11 20:55 | -17.90501 | 74.51425 | 34021 ft | 450 kts | 261° |
| 2026-04-11 20:55 | -17.91685 | 74.44977 | 34023 ft | 450 kts | 261° |
| 2026-04-11 20:56 | -17.92868 | 74.38527 | 34022 ft | 450 kts | 261° |
| 2026-04-11 20:56 | -17.94051 | 74.32063 | 34023 ft | 450 kts | 261° |
| 2026-04-11 20:57 | -17.95231 | 74.25605 | 34022 ft | 451 kts | 261° |
| 2026-04-11 20:57 | -17.96411 | 74.19132 | 34023 ft | 451 kts | 261° |
| 2026-04-11 20:58 | -17.97590 | 74.12655 | 34023 ft | 452 kts | 261° |
| 2026-04-11 20:58 | -17.98768 | 74.06169 | 34022 ft | 452 kts | 261° |
| 2026-04-11 20:59 | -17.99912 | 73.99858 | 34025 ft | 452 kts | 261° |
| 2026-04-11 20:59 | -18.01068 | 73.93468 | 34021 ft | 452 kts | 261° |
| 2026-04-11 21:00 | -18.02240 | 73.86978 | 34029 ft | 452 kts | 261° |
| 2026-04-11 21:00 | -18.03409 | 73.80494 | 34032 ft | 452 kts | 261° |
| 2026-04-11 21:01 | -18.04575 | 73.74010 | 34031 ft | 452 kts | 261° |
| 2026-04-11 21:01 | -18.05740 | 73.67519 | 34025 ft | 452 kts | 261° |
| 2026-04-11 21:02 | -18.06895 | 73.61070 | 34034 ft | 452 kts | 261° |
| 2026-04-11 21:02 | -18.08054 | 73.54591 | 34028 ft | 451 kts | 261° |
| 2026-04-11 21:03 | -18.09211 | 73.48107 | 34026 ft | 451 kts | 261° |
| 2026-04-11 21:03 | -18.10363 | 73.41633 | 34026 ft | 450 kts | 261° |
| 2026-04-11 21:04 | -18.11513 | 73.35164 | 34031 ft | 450 kts | 262° |
| 2026-04-11 21:04 | -18.12660 | 73.28698 | 34032 ft | 450 kts | 262° |
| 2026-04-11 21:05 | -18.13805 | 73.22230 | 34029 ft | 450 kts | 262° |
| 2026-04-11 21:05 | -18.14762 | 73.16812 | 34031 ft | 450 kts | 262° |
| 2026-04-11 21:06 | -18.15904 | 73.10331 | 34030 ft | 450 kts | 262° |
| 2026-04-11 21:06 | -18.17044 | 73.03858 | 34030 ft | 451 kts | 262° |
| 2026-04-11 21:07 | -18.18136 | 72.97640 | 34030 ft | 451 kts | 262° |
| 2026-04-11 21:07 | -18.19273 | 72.91151 | 34028 ft | 451 kts | 262° |
| 2026-04-11 21:08 | -18.20407 | 72.84668 | 34034 ft | 451 kts | 262° |
| 2026-04-11 21:08 | -18.21541 | 72.78173 | 34033 ft | 451 kts | 262° |
| 2026-04-11 21:09 | -18.22672 | 72.71681 | 34032 ft | 451 kts | 262° |
| 2026-04-11 21:09 | -18.23802 | 72.65182 | 34033 ft | 452 kts | 262° |
| 2026-04-11 21:10 | -18.24922 | 72.58727 | 34029 ft | 452 kts | 262° |
| 2026-04-11 21:10 | -18.26046 | 72.52230 | 34034 ft | 452 kts | 262° |
| 2026-04-11 21:11 | -18.27171 | 72.45723 | 34032 ft | 452 kts | 262° |
| 2026-04-11 21:11 | -18.28291 | 72.39225 | 34033 ft | 452 kts | 262° |
| 2026-04-11 21:12 | -18.29408 | 72.32730 | 34037 ft | 450 kts | 262° |
| 2026-04-11 21:12 | -18.30519 | 72.26262 | 34029 ft | 448 kts | 262° |
| 2026-04-11 21:13 | -18.31624 | 72.19816 | 34031 ft | 447 kts | 262° |
| 2026-04-11 21:13 | -18.32722 | 72.13394 | 34032 ft | 446 kts | 262° |
| 2026-04-11 21:14 | -18.33817 | 72.06974 | 34033 ft | 445 kts | 262° |
| 2026-04-11 21:14 | -18.34909 | 72.00558 | 34033 ft | 445 kts | 262° |
| 2026-04-11 21:15 | -18.35955 | 71.94400 | 34034 ft | 446 kts | 262° |
| 2026-04-11 21:15 | -18.37046 | 71.87964 | 34033 ft | 447 kts | 262° |
| 2026-04-11 21:16 | -18.38137 | 71.81516 | 34033 ft | 448 kts | 262° |
| 2026-04-11 21:16 | -18.39229 | 71.75052 | 34034 ft | 448 kts | 262° |
| 2026-04-11 21:17 | -18.40319 | 71.68584 | 34032 ft | 449 kts | 262° |
| 2026-04-11 21:17 | -18.41407 | 71.62112 | 34034 ft | 449 kts | 262° |
| 2026-04-11 21:18 | -18.42492 | 71.55641 | 34036 ft | 449 kts | 262° |
| 2026-04-11 21:18 | -18.43577 | 71.49164 | 34033 ft | 449 kts | 262° |
| 2026-04-11 21:19 | -18.44658 | 71.42689 | 34036 ft | 449 kts | 262° |
| 2026-04-11 21:19 | -18.45738 | 71.36214 | 34031 ft | 449 kts | 262° |
| 2026-04-11 21:20 | -18.46814 | 71.29744 | 34036 ft | 448 kts | 262° |
| 2026-04-11 21:20 | -18.47888 | 71.23272 | 34037 ft | 448 kts | 262° |
| 2026-04-11 21:21 | -18.48959 | 71.16805 | 34035 ft | 448 kts | 262° |
| 2026-04-11 21:21 | -18.50026 | 71.10345 | 34041 ft | 447 kts | 262° |
| 2026-04-11 21:22 | -18.51090 | 71.03899 | 34034 ft | 446 kts | 262° |
| 2026-04-11 21:22 | -18.52102 | 70.97748 | 34033 ft | 444 kts | 262° |
| 2026-04-11 21:23 | -18.53155 | 70.91335 | 34038 ft | 444 kts | 262° |
| 2026-04-11 21:23 | -18.54203 | 70.84934 | 34031 ft | 443 kts | 262° |
| 2026-04-11 21:24 | -18.55249 | 70.78537 | 34038 ft | 443 kts | 262° |
| 2026-04-11 21:24 | -18.56293 | 70.72134 | 34036 ft | 444 kts | 262° |
| 2026-04-11 21:25 | -18.57337 | 70.65718 | 34037 ft | 444 kts | 262° |
| 2026-04-11 21:25 | -18.58381 | 70.59292 | 34039 ft | 445 kts | 262° |
| 2026-04-11 21:26 | -18.59422 | 70.52868 | 34042 ft | 445 kts | 262° |
| 2026-04-11 21:26 | -18.60461 | 70.46438 | 34037 ft | 445 kts | 262° |
| 2026-04-11 21:27 | -18.61501 | 70.39996 | 34035 ft | 445 kts | 262° |
| 2026-04-11 21:27 | -18.62537 | 70.33557 | 34039 ft | 445 kts | 262° |
| 2026-04-11 21:28 | -18.63570 | 70.27125 | 34036 ft | 445 kts | 262° |
| 2026-04-11 21:28 | -18.64601 | 70.20689 | 34037 ft | 445 kts | 263° |
| 2026-04-11 21:29 | -18.65630 | 70.14253 | 34039 ft | 445 kts | 262° |
| 2026-04-11 21:29 | -18.66656 | 70.07822 | 34034 ft | 445 kts | 262° |
| 2026-04-11 21:30 | -18.67681 | 70.01385 | 34034 ft | 445 kts | 262° |
| 2026-04-11 21:30 | -18.68653 | 69.95258 | 34061 ft | 445 kts | 263° |
| 2026-04-11 21:31 | -18.69678 | 69.88786 | 34040 ft | 444 kts | 263° |
| 2026-04-11 21:31 | -18.70683 | 69.82414 | 34035 ft | 442 kts | 263° |
| 2026-04-11 21:32 | -18.72196 | 69.72801 | 34037 ft | 440 kts | 263° |
| 2026-04-11 21:32 | -18.73196 | 69.66431 | 34038 ft | 440 kts | 263° |
| 2026-04-11 21:33 | -18.74185 | 69.60114 | 34037 ft | 439 kts | 263° |
| 2026-04-11 21:33 | -18.75179 | 69.53750 | 34038 ft | 440 kts | 263° |
| 2026-04-11 21:34 | -18.76171 | 69.47385 | 34039 ft | 440 kts | 263° |
| 2026-04-11 21:34 | -18.77164 | 69.41004 | 34039 ft | 441 kts | 263° |
| 2026-04-11 21:35 | -18.78154 | 69.34623 | 34039 ft | 441 kts | 263° |
| 2026-04-11 21:35 | -18.79144 | 69.28229 | 34038 ft | 442 kts | 263° |
| 2026-04-11 21:36 | -18.80131 | 69.21838 | 34042 ft | 442 kts | 263° |
| 2026-04-11 21:36 | -18.81118 | 69.15434 | 34041 ft | 442 kts | 262° |
| 2026-04-11 21:37 | -18.82102 | 69.09034 | 34040 ft | 442 kts | 262° |
| 2026-04-11 21:37 | -18.83083 | 69.02637 | 34040 ft | 441 kts | 263° |
| 2026-04-11 21:38 | -18.84019 | 68.96520 | 34040 ft | 441 kts | 262° |
| 2026-04-11 21:38 | -18.84995 | 68.90133 | 34040 ft | 441 kts | 263° |
| 2026-04-11 21:39 | -18.85968 | 68.83742 | 34041 ft | 441 kts | 262° |
| 2026-04-11 21:39 | -18.86938 | 68.77359 | 34038 ft | 440 kts | 262° |
| 2026-04-11 21:40 | -18.87905 | 68.70979 | 34042 ft | 439 kts | 263° |
| 2026-04-11 21:40 | -18.88867 | 68.64622 | 34036 ft | 438 kts | 263° |
| 2026-04-11 21:41 | -18.89824 | 68.58277 | 34037 ft | 437 kts | 263° |
| 2026-04-11 21:41 | -18.90778 | 68.51945 | 34033 ft | 436 kts | 263° |
| 2026-04-11 21:42 | -18.91727 | 68.45619 | 34041 ft | 436 kts | 263° |
| 2026-04-11 21:42 | -18.92674 | 68.39298 | 34041 ft | 436 kts | 263° |
| 2026-04-11 21:43 | -18.93620 | 68.32974 | 34041 ft | 436 kts | 263° |
| 2026-04-11 21:43 | -18.94558 | 68.26682 | 34042 ft | 437 kts | 263° |
| 2026-04-11 21:44 | -18.95502 | 68.20336 | 34038 ft | 437 kts | 263° |
| 2026-04-11 21:44 | -18.96444 | 68.13990 | 34038 ft | 438 kts | 263° |
| 2026-04-11 21:45 | -18.97386 | 68.07626 | 34038 ft | 438 kts | 263° |
| 2026-04-11 21:45 | -18.98325 | 68.01264 | 34038 ft | 438 kts | 263° |
| 2026-04-11 21:46 | -18.99221 | 67.95181 | 34038 ft | 438 kts | 263° |
| 2026-04-11 21:46 | -19.00156 | 67.88826 | 34041 ft | 438 kts | 263° |
| 2026-04-11 21:47 | -19.01555 | 67.79278 | 34037 ft | 438 kts | 263° |
| 2026-04-11 21:48 | -19.02484 | 67.72919 | 34038 ft | 438 kts | 263° |
| 2026-04-11 21:48 | -19.03410 | 67.66563 | 34038 ft | 438 kts | 263° |
| 2026-04-11 21:49 | -19.04185 | 67.61235 | 34041 ft | 438 kts | 263° |
| 2026-04-11 21:49 | -19.05107 | 67.54875 | 34037 ft | 438 kts | 263° |
| 2026-04-11 21:50 | -19.06021 | 67.48561 | 34038 ft | 437 kts | 263° |
| 2026-04-11 21:50 | -19.06939 | 67.42206 | 34039 ft | 437 kts | 263° |
| 2026-04-11 21:51 | -19.07853 | 67.35857 | 34043 ft | 437 kts | 263° |
| 2026-04-11 21:51 | -19.08765 | 67.29504 | 34037 ft | 437 kts | 263° |
| 2026-04-11 21:52 | -19.09675 | 67.23152 | 34036 ft | 437 kts | 263° |
| 2026-04-11 21:52 | -19.10584 | 67.16796 | 34038 ft | 437 kts | 263° |
| 2026-04-11 21:53 | -19.11489 | 67.10446 | 34044 ft | 437 kts | 263° |
| 2026-04-11 21:53 | -19.12392 | 67.04099 | 34043 ft | 437 kts | 263° |
| 2026-04-11 21:54 | -19.13256 | 66.98003 | 34225 ft | 440 kts | 263° |
| 2026-04-11 21:54 | -19.13708 | 66.94810 | 34564 ft | 438 kts | 263° |
| 2026-04-11 21:54 | -19.14157 | 66.91641 | 34934 ft | 435 kts | 263° |
| 2026-04-11 21:54 | -19.14603 | 66.88488 | 35298 ft | 432 kts | 263° |
| 2026-04-11 21:55 | -19.15045 | 66.85357 | 35649 ft | 430 kts | 263° |
| 2026-04-11 21:55 | -19.15485 | 66.82229 | 35923 ft | 429 kts | 263° |
| 2026-04-11 21:55 | -19.15925 | 66.79097 | 35966 ft | 432 kts | 263° |
| 2026-04-11 21:56 | -19.16807 | 66.72814 | 36023 ft | 431 kts | 263° |
| 2026-04-11 21:56 | -19.17683 | 66.66563 | 36037 ft | 428 kts | 263° |
| 2026-04-11 21:57 | -19.18551 | 66.60351 | 36041 ft | 427 kts | 263° |
| 2026-04-11 21:57 | -19.19416 | 66.54148 | 36038 ft | 426 kts | 263° |
| 2026-04-11 21:58 | -19.20278 | 66.47944 | 36036 ft | 426 kts | 263° |
| 2026-04-11 21:58 | -19.21138 | 66.41739 | 36044 ft | 427 kts | 263° |
| 2026-04-11 21:59 | -19.21999 | 66.35515 | 36043 ft | 427 kts | 263° |
| 2026-04-11 21:59 | -19.22857 | 66.29295 | 36038 ft | 428 kts | 263° |
| 2026-04-11 22:00 | -19.23716 | 66.23055 | 36042 ft | 428 kts | 263° |
| 2026-04-11 22:00 | -19.24567 | 66.16861 | 36042 ft | 428 kts | 263° |
| 2026-04-11 22:01 | -19.25421 | 66.10621 | 36044 ft | 428 kts | 263° |
| 2026-04-11 22:01 | -19.26272 | 66.04392 | 36039 ft | 428 kts | 263° |
| 2026-04-11 22:02 | -19.27087 | 65.98408 | 36041 ft | 428 kts | 263° |
| 2026-04-11 22:02 | -19.27933 | 65.92178 | 36037 ft | 428 kts | 264° |
| 2026-04-11 22:03 | -19.28778 | 65.85942 | 36041 ft | 427 kts | 264° |
| 2026-04-11 22:03 | -19.29620 | 65.79717 | 36040 ft | 427 kts | 264° |
| 2026-04-11 22:04 | -19.30459 | 65.73495 | 36041 ft | 427 kts | 264° |
| 2026-04-11 22:04 | -19.31297 | 65.67262 | 36041 ft | 427 kts | 264° |
| 2026-04-11 22:05 | -19.32131 | 65.61041 | 36038 ft | 427 kts | 264° |
| 2026-04-11 22:05 | -19.32964 | 65.54810 | 36038 ft | 427 kts | 264° |
| 2026-04-11 22:06 | -19.33795 | 65.48582 | 36038 ft | 427 kts | 264° |
| 2026-04-11 22:06 | -19.34624 | 65.42352 | 36038 ft | 427 kts | 264° |
| 2026-04-11 22:07 | -19.35452 | 65.36112 | 36038 ft | 427 kts | 264° |
| 2026-04-11 22:07 | -19.36276 | 65.29883 | 36055 ft | 427 kts | 264° |
| 2026-04-11 22:08 | -19.37099 | 65.23651 | 36037 ft | 427 kts | 264° |
| 2026-04-11 22:08 | -19.37918 | 65.17430 | 36035 ft | 426 kts | 264° |
| 2026-04-11 22:09 | -19.38733 | 65.11220 | 36041 ft | 426 kts | 264° |
| 2026-04-11 22:09 | -19.39546 | 65.05009 | 36040 ft | 425 kts | 264° |
| 2026-04-11 22:10 | -19.40322 | 64.99069 | 36043 ft | 425 kts | 264° |
| 2026-04-11 22:10 | -19.41131 | 64.92862 | 36041 ft | 425 kts | 264° |
| 2026-04-11 22:11 | -19.41936 | 64.86659 | 36047 ft | 425 kts | 264° |
| 2026-04-11 22:11 | -19.42740 | 64.80458 | 36046 ft | 425 kts | 264° |
| 2026-04-11 22:12 | -19.43543 | 64.74240 | 36043 ft | 426 kts | 264° |
| 2026-04-11 22:12 | -19.44343 | 64.68029 | 36048 ft | 426 kts | 264° |
| 2026-04-11 22:13 | -19.45142 | 64.61808 | 36043 ft | 426 kts | 264° |
| 2026-04-11 22:13 | -19.45939 | 64.55586 | 36040 ft | 426 kts | 264° |
| 2026-04-11 22:14 | -19.46735 | 64.49355 | 36042 ft | 427 kts | 264° |
| 2026-04-11 22:14 | -19.47529 | 64.43126 | 36040 ft | 427 kts | 264° |
| 2026-04-11 22:15 | -19.48316 | 64.36937 | 36041 ft | 427 kts | 264° |
| 2026-04-11 22:15 | -19.49105 | 64.30706 | 36043 ft | 427 kts | 264° |
| 2026-04-11 22:16 | -19.49892 | 64.24478 | 36045 ft | 426 kts | 264° |
| 2026-04-11 22:16 | -19.50678 | 64.18244 | 36047 ft | 426 kts | 264° |
| 2026-04-11 22:17 | -19.51460 | 64.12014 | 36044 ft | 426 kts | 264° |
| 2026-04-11 22:17 | -19.52246 | 64.05740 | 36043 ft | 426 kts | 264° |
| 2026-04-11 22:18 | -19.52990 | 63.99792 | 36046 ft | 426 kts | 264° |
| 2026-04-11 22:18 | -19.53762 | 63.93594 | 36044 ft | 426 kts | 264° |
| 2026-04-11 22:19 | -19.54536 | 63.87363 | 36047 ft | 426 kts | 264° |
| 2026-04-11 22:19 | -19.55309 | 63.81127 | 36044 ft | 426 kts | 264° |
| 2026-04-11 22:20 | -19.56078 | 63.74895 | 36040 ft | 426 kts | 264° |
| 2026-04-11 22:20 | -19.56846 | 63.68663 | 36040 ft | 426 kts | 264° |
| 2026-04-11 22:21 | -19.57611 | 63.62435 | 36044 ft | 426 kts | 264° |
| 2026-04-11 22:21 | -19.58376 | 63.56191 | 36047 ft | 427 kts | 264° |
| 2026-04-11 22:22 | -19.59138 | 63.49946 | 36047 ft | 427 kts | 264° |
| 2026-04-11 22:22 | -19.59898 | 63.43707 | 36042 ft | 427 kts | 264° |
| 2026-04-11 22:23 | -19.60657 | 63.37458 | 36042 ft | 427 kts | 264° |
| 2026-04-11 22:23 | -19.61413 | 63.31206 | 36042 ft | 427 kts | 264° |
| 2026-04-11 22:24 | -19.62167 | 63.24959 | 36045 ft | 427 kts | 264° |
| 2026-04-11 22:24 | -19.62919 | 63.18712 | 36042 ft | 427 kts | 264° |
| 2026-04-11 22:25 | -19.63670 | 63.12452 | 36056 ft | 427 kts | 265° |
| 2026-04-11 22:25 | -19.64418 | 63.06199 | 36043 ft | 427 kts | 265° |
| 2026-04-11 22:26 | -19.65159 | 62.99984 | 36043 ft | 427 kts | 265° |
| 2026-04-11 22:26 | -19.65874 | 62.93974 | 36045 ft | 427 kts | 265° |
| 2026-04-11 22:27 | -19.66615 | 62.87728 | 36041 ft | 426 kts | 265° |
| 2026-04-11 22:27 | -19.67352 | 62.81491 | 36040 ft | 426 kts | 265° |
| 2026-04-11 22:28 | -19.68082 | 62.75293 | 36046 ft | 426 kts | 265° |
| 2026-04-11 22:28 | -19.68815 | 62.69056 | 36048 ft | 426 kts | 265° |
| 2026-04-11 22:29 | -19.69550 | 62.62778 | 36045 ft | 426 kts | 265° |
| 2026-04-11 22:29 | -19.70274 | 62.56579 | 36045 ft | 426 kts | 265° |
| 2026-04-11 22:30 | -19.71002 | 62.50332 | 36047 ft | 426 kts | 265° |
| 2026-04-11 22:30 | -19.71726 | 62.44088 | 36048 ft | 426 kts | 265° |
| 2026-04-11 22:31 | -19.72449 | 62.37844 | 36050 ft | 427 kts | 265° |
| 2026-04-11 22:31 | -19.73170 | 62.31589 | 36048 ft | 427 kts | 265° |
| 2026-04-11 22:32 | -19.73890 | 62.25330 | 36047 ft | 427 kts | 265° |
| 2026-04-11 22:32 | -19.74608 | 62.19071 | 36048 ft | 427 kts | 264° |
| 2026-04-11 22:33 | -19.75323 | 62.12815 | 36048 ft | 427 kts | 264° |
| 2026-04-11 22:33 | -19.75916 | 62.07614 | 36048 ft | 427 kts | 265° |
| 2026-04-11 22:34 | -19.76631 | 62.01316 | 36054 ft | 427 kts | 265° |
| 2026-04-11 22:34 | -19.77305 | 61.95367 | 36048 ft | 427 kts | 265° |
| 2026-04-11 22:35 | -19.78011 | 61.89119 | 36047 ft | 426 kts | 264° |
| 2026-04-11 22:35 | -19.78714 | 61.82871 | 36049 ft | 426 kts | 264° |
| 2026-04-11 22:36 | -19.79415 | 61.76630 | 36044 ft | 426 kts | 264° |
| 2026-04-11 22:36 | -19.80113 | 61.70389 | 36045 ft | 425 kts | 264° |
| 2026-04-11 22:37 | -19.80808 | 61.64153 | 36053 ft | 425 kts | 264° |
| 2026-04-11 22:37 | -19.81501 | 61.57914 | 36047 ft | 425 kts | 264° |
| 2026-04-11 22:38 | -19.82193 | 61.51675 | 36049 ft | 426 kts | 264° |
| 2026-04-11 22:38 | -19.82882 | 61.45429 | 36054 ft | 426 kts | 264° |
| 2026-04-11 22:39 | -19.83570 | 61.39186 | 36049 ft | 426 kts | 264° |
| 2026-04-11 22:39 | -19.84256 | 61.32928 | 36041 ft | 426 kts | 264° |
| 2026-04-11 22:40 | -19.84939 | 61.26684 | 36046 ft | 426 kts | 264° |
| 2026-04-11 22:40 | -19.85621 | 61.20424 | 36043 ft | 426 kts | 264° |
| 2026-04-11 22:41 | -19.86300 | 61.14174 | 36042 ft | 426 kts | 264° |
| 2026-04-11 22:41 | -19.86978 | 61.07921 | 36042 ft | 426 kts | 264° |
| 2026-04-11 22:42 | -19.87653 | 61.01667 | 36040 ft | 426 kts | 264° |
| 2026-04-11 22:42 | -19.88299 | 60.95657 | 36059 ft | 426 kts | 264° |
| 2026-04-11 22:43 | -19.89302 | 60.86296 | 36047 ft | 425 kts | 264° |
| 2026-04-11 22:43 | -19.89968 | 60.80057 | 36043 ft | 424 kts | 264° |
| 2026-04-11 22:44 | -19.90630 | 60.73831 | 36046 ft | 424 kts | 264° |
| 2026-04-11 22:44 | -19.91289 | 60.67614 | 36044 ft | 423 kts | 264° |
| 2026-04-11 22:45 | -19.91944 | 60.61406 | 36044 ft | 423 kts | 265° |
| 2026-04-11 22:45 | -19.92598 | 60.55197 | 36053 ft | 423 kts | 265° |
| 2026-04-11 22:46 | -19.93248 | 60.48998 | 36047 ft | 423 kts | 265° |
| 2026-04-11 22:46 | -19.93898 | 60.42788 | 36049 ft | 423 kts | 265° |
| 2026-04-11 22:47 | -19.94811 | 60.36640 | 36037 ft | 423 kts | 251° |
| 2026-04-11 22:47 | -19.96211 | 60.33874 | 36047 ft | 431 kts | 238° |
| 2026-04-11 22:47 | -19.98256 | 60.31505 | 36060 ft | 440 kts | 226° |
| 2026-04-11 22:48 | -20.00710 | 60.29624 | 36050 ft | 451 kts | 216° |
| 2026-04-11 22:48 | -20.03563 | 60.28177 | 36055 ft | 460 kts | 207° |
| 2026-04-11 22:48 | -20.06711 | 60.27340 | 36050 ft | 478 kts | 191° |
| 2026-04-11 22:48 | -20.10048 | 60.27339 | 36060 ft | 475 kts | 190° |
| 2026-04-11 22:49 | -20.13221 | 60.26719 | 36047 ft | 453 kts | 210° |
| 2026-04-11 22:49 | -20.15845 | 60.25041 | 36050 ft | 434 kts | 229° |
| 2026-04-11 22:49 | -20.17733 | 60.22599 | 36062 ft | 425 kts | 243° |
| 2026-04-11 22:49 | -20.19145 | 60.19836 | 36059 ft | 426 kts | 249° |
| 2026-04-11 22:50 | -20.20696 | 60.13854 | 36058 ft | 422 kts | 267° |
| 2026-04-11 22:50 | -20.20971 | 60.07586 | 36058 ft | 425 kts | 268° |
| 2026-04-11 22:51 | -20.21210 | 60.01283 | 36051 ft | 427 kts | 268° |
| 2026-04-11 22:51 | -20.21485 | 59.95256 | 36047 ft | 426 kts | 268° |
| 2026-04-11 22:52 | -20.21802 | 59.88980 | 36047 ft | 424 kts | 268° |
| 2026-04-11 22:52 | -20.22125 | 59.82726 | 36046 ft | 422 kts | 268° |
| 2026-04-11 22:53 | -20.22444 | 59.76511 | 36047 ft | 420 kts | 268° |
| 2026-04-11 22:53 | -20.22760 | 59.70316 | 36062 ft | 419 kts | 268° |
| 2026-04-11 22:54 | -20.23072 | 59.64127 | 36049 ft | 418 kts | 268° |
| 2026-04-11 22:54 | -20.23381 | 59.57956 | 36049 ft | 417 kts | 268° |
| 2026-04-11 22:55 | -20.23841 | 59.48701 | 36051 ft | 417 kts | 268° |
| 2026-04-11 22:56 | -20.24145 | 59.42528 | 36051 ft | 418 kts | 268° |
| 2026-04-11 22:56 | -20.24447 | 59.36342 | 36050 ft | 418 kts | 268° |
| 2026-04-11 22:57 | -20.24747 | 59.30161 | 36047 ft | 419 kts | 268° |
| 2026-04-11 22:57 | -20.25046 | 59.23956 | 36050 ft | 419 kts | 268° |
| 2026-04-11 22:58 | -20.25342 | 59.17755 | 36055 ft | 420 kts | 268° |
| 2026-04-11 22:58 | -20.25637 | 59.11546 | 36053 ft | 420 kts | 268° |
| 2026-04-11 22:59 | -20.25930 | 59.05332 | 36055 ft | 420 kts | 268° |
| 2026-04-11 22:59 | -20.26208 | 58.99385 | 36051 ft | 420 kts | 268° |
| 2026-04-11 23:00 | -20.26496 | 58.93178 | 36054 ft | 420 kts | 268° |
| 2026-04-11 23:00 | -20.26782 | 58.86969 | 36056 ft | 420 kts | 268° |
| 2026-04-11 23:01 | -20.27066 | 58.80766 | 36055 ft | 419 kts | 268° |
| 2026-04-11 23:01 | -20.27347 | 58.74558 | 36053 ft | 419 kts | 268° |
| 2026-04-11 23:02 | -20.27626 | 58.68360 | 36055 ft | 419 kts | 268° |
| 2026-04-11 23:02 | -20.27903 | 58.62153 | 36056 ft | 419 kts | 268° |
| 2026-04-11 23:03 | -20.28178 | 58.55956 | 36055 ft | 419 kts | 268° |
| 2026-04-11 23:03 | -20.28451 | 58.49748 | 36064 ft | 419 kts | 268° |
| 2026-04-11 23:04 | -20.28721 | 58.43541 | 36059 ft | 419 kts | 268° |
| 2026-04-11 23:04 | -20.28989 | 58.37347 | 36056 ft | 419 kts | 268° |
| 2026-04-11 23:05 | -20.29255 | 58.31146 | 36047 ft | 418 kts | 268° |
| 2026-04-11 23:05 | -20.29518 | 58.24960 | 36055 ft | 418 kts | 268° |
| 2026-04-11 23:06 | -20.29780 | 58.18773 | 36052 ft | 418 kts | 268° |
| 2026-04-11 23:06 | -20.30587 | 58.12656 | 36061 ft | 420 kts | 256° |
| 2026-04-11 23:07 | -20.32649 | 58.06813 | 36059 ft | 424 kts | 246° |
| 2026-04-11 23:07 | -20.35760 | 58.01430 | 36055 ft | 428 kts | 242° |
| 2026-04-11 23:08 | -20.38862 | 57.96359 | 36058 ft | 428 kts | 242° |
| 2026-04-11 23:08 | -20.42083 | 57.91025 | 36049 ft | 427 kts | 242° |
| 2026-04-11 23:09 | -20.45274 | 57.85683 | 36067 ft | 427 kts | 242° |
| 2026-04-11 23:09 | -20.48458 | 57.80331 | 36044 ft | 427 kts | 242° |
| 2026-04-11 23:10 | -20.51622 | 57.75010 | 36042 ft | 427 kts | 242° |
| 2026-04-11 23:10 | -20.54819 | 57.69629 | 36044 ft | 427 kts | 242° |
| 2026-04-11 23:11 | -20.57970 | 57.64319 | 36047 ft | 426 kts | 242° |
| 2026-04-11 23:11 | -20.61141 | 57.58974 | 36059 ft | 426 kts | 242° |
| 2026-04-11 23:11 | -20.62514 | 57.56213 | 36043 ft | 418 kts | 253° |
| 2026-04-11 23:12 | -20.63219 | 57.53230 | 36060 ft | 414 kts | 263° |
| 2026-04-11 23:12 | -20.63316 | 57.47114 | 36037 ft | 414 kts | 280° |
| 2026-04-11 23:13 | -20.62364 | 57.41060 | 36074 ft | 415 kts | 274° |
| 2026-04-11 23:13 | -20.62261 | 57.34884 | 36058 ft | 418 kts | 266° |
| 2026-04-11 23:14 | -20.62828 | 57.28688 | 36058 ft | 421 kts | 265° |
| 2026-04-11 23:14 | -20.63427 | 57.22471 | 36052 ft | 422 kts | 265° |
| 2026-04-11 23:15 | -20.64004 | 57.16238 | 36052 ft | 422 kts | 265° |
| 2026-04-11 23:15 | -20.64565 | 57.10017 | 36048 ft | 421 kts | 265° |
| 2026-04-11 23:16 | -20.65120 | 57.03812 | 36050 ft | 419 kts | 265° |
| 2026-04-11 23:16 | -20.65557 | 56.98928 | 36050 ft | 418 kts | 265° |
| 2026-04-11 23:17 | -20.66107 | 56.92756 | 36051 ft | 417 kts | 265° |
| 2026-04-11 23:17 | -20.66650 | 56.86591 | 36051 ft | 417 kts | 265° |
| 2026-04-11 23:18 | -20.67187 | 56.80435 | 36050 ft | 416 kts | 265° |
| 2026-04-11 23:18 | -20.67721 | 56.74281 | 36048 ft | 416 kts | 265° |
| 2026-04-11 23:19 | -20.68254 | 56.68122 | 36048 ft | 416 kts | 265° |
| 2026-04-11 23:19 | -20.68784 | 56.61970 | 36050 ft | 417 kts | 265° |
| 2026-04-11 23:20 | -20.69314 | 56.55806 | 36041 ft | 417 kts | 265° |
| 2026-04-11 23:20 | -20.69841 | 56.49638 | 36058 ft | 417 kts | 265° |
| 2026-04-11 23:21 | -20.70368 | 56.43457 | 36061 ft | 418 kts | 265° |
| 2026-04-11 23:21 | -20.70893 | 56.37265 | 36054 ft | 419 kts | 265° |
| 2026-04-11 23:22 | -20.71416 | 56.31076 | 36051 ft | 419 kts | 265° |
| 2026-04-11 23:22 | -20.72130 | 56.24896 | 36050 ft | 420 kts | 260° |
| 2026-04-11 23:23 | -20.73494 | 56.18833 | 36050 ft | 420 kts | 258° |
| 2026-04-11 23:23 | -20.74863 | 56.12764 | 36052 ft | 420 kts | 258° |
| 2026-04-11 23:24 | -20.76217 | 56.06697 | 36053 ft | 420 kts | 258° |
| 2026-04-11 23:24 | -20.77557 | 56.00666 | 36052 ft | 420 kts | 258° |
| 2026-04-11 23:25 | -20.78846 | 55.94851 | 36050 ft | 420 kts | 258° |
| 2026-04-11 23:25 | -20.80190 | 55.88783 | 36054 ft | 420 kts | 258° |
| 2026-04-11 23:26 | -20.81530 | 55.82716 | 36055 ft | 420 kts | 258° |
| 2026-04-11 23:26 | -20.82870 | 55.76642 | 36046 ft | 419 kts | 258° |
| 2026-04-11 23:27 | -20.84206 | 55.70577 | 36051 ft | 419 kts | 258° |
| 2026-04-11 23:27 | -20.85541 | 55.64503 | 36051 ft | 419 kts | 258° |
| 2026-04-11 23:28 | -20.86872 | 55.58440 | 36049 ft | 419 kts | 258° |
| 2026-04-11 23:28 | -20.87677 | 55.52295 | 36046 ft | 417 kts | 270° |
| 2026-04-11 23:29 | -20.87313 | 55.46108 | 36046 ft | 418 kts | 278° |
| 2026-04-11 23:29 | -20.85941 | 55.40064 | 36045 ft | 419 kts | 283° |
| 2026-04-11 23:30 | -20.84429 | 55.34043 | 36051 ft | 419 kts | 283° |
| 2026-04-11 23:30 | -20.82932 | 55.28017 | 36054 ft | 420 kts | 282° |
| 2026-04-11 23:31 | -20.81452 | 55.21980 | 36051 ft | 420 kts | 282° |
| 2026-04-11 23:31 | -20.79978 | 55.15938 | 36046 ft | 420 kts | 282° |
| 2026-04-11 23:32 | -20.78504 | 55.09895 | 36045 ft | 420 kts | 282° |
| 2026-04-11 23:32 | -20.77028 | 55.03859 | 36049 ft | 420 kts | 282° |
| 2026-04-11 23:33 | -20.75616 | 54.98091 | 36054 ft | 420 kts | 282° |
| 2026-04-11 23:33 | -20.74138 | 54.92065 | 36039 ft | 420 kts | 282° |
| 2026-04-11 23:34 | -20.72656 | 54.86036 | 36039 ft | 420 kts | 282° |
| 2026-04-11 23:34 | -20.71172 | 54.80006 | 36052 ft | 419 kts | 282° |
| 2026-04-11 23:35 | -20.69697 | 54.74022 | 36051 ft | 419 kts | 282° |
| 2026-04-11 23:35 | -20.68211 | 54.68001 | 36047 ft | 419 kts | 282° |
| 2026-04-11 23:36 | -20.66723 | 54.61985 | 36046 ft | 419 kts | 282° |
| 2026-04-11 23:36 | -20.65233 | 54.55968 | 36048 ft | 419 kts | 282° |
| 2026-04-11 23:37 | -20.63742 | 54.49960 | 36045 ft | 419 kts | 282° |
| 2026-04-11 23:37 | -20.62249 | 54.43949 | 36043 ft | 419 kts | 282° |
| 2026-04-11 23:38 | -20.60753 | 54.37940 | 36050 ft | 419 kts | 283° |
| 2026-04-11 23:38 | -20.59255 | 54.31927 | 36044 ft | 419 kts | 283° |
| 2026-04-11 23:39 | -20.57755 | 54.25919 | 36038 ft | 419 kts | 283° |
| 2026-04-11 23:39 | -20.56254 | 54.19915 | 36046 ft | 419 kts | 283° |
| 2026-04-11 23:40 | -20.54749 | 54.13907 | 36045 ft | 419 kts | 283° |
| 2026-04-11 23:40 | -20.53243 | 54.07901 | 36047 ft | 419 kts | 283° |
| 2026-04-11 23:41 | -20.51733 | 54.01893 | 36047 ft | 419 kts | 283° |
| 2026-04-11 23:41 | -20.50289 | 53.96152 | 36041 ft | 419 kts | 283° |
| 2026-04-11 23:42 | -20.48776 | 53.90147 | 36046 ft | 419 kts | 283° |
| 2026-04-11 23:42 | -20.47261 | 53.84146 | 36043 ft | 419 kts | 283° |
| 2026-04-11 23:43 | -20.44984 | 53.75142 | 36044 ft | 419 kts | 283° |
| 2026-04-11 23:44 | -20.42701 | 53.66135 | 36042 ft | 419 kts | 283° |
| 2026-04-11 23:44 | -20.41179 | 53.60142 | 36043 ft | 419 kts | 283° |
| 2026-04-11 23:45 | -20.39654 | 53.54144 | 36044 ft | 419 kts | 283° |
| 2026-04-11 23:45 | -20.38126 | 53.48148 | 36043 ft | 419 kts | 283° |
| 2026-04-11 23:46 | -20.36598 | 53.42157 | 36040 ft | 419 kts | 283° |
| 2026-04-11 23:46 | -20.35076 | 53.36199 | 36044 ft | 419 kts | 283° |
| 2026-04-11 23:47 | -20.33544 | 53.30213 | 36042 ft | 419 kts | 283° |
| 2026-04-11 23:47 | -20.32009 | 53.24223 | 36041 ft | 419 kts | 283° |
| 2026-04-11 23:48 | -20.30472 | 53.18238 | 36040 ft | 419 kts | 283° |
| 2026-04-11 23:48 | -20.28933 | 53.12251 | 36040 ft | 419 kts | 283° |
| 2026-04-11 23:49 | -20.27393 | 53.06266 | 36041 ft | 419 kts | 283° |
| 2026-04-11 23:49 | -20.25849 | 53.00277 | 36031 ft | 419 kts | 283° |
| 2026-04-11 23:50 | -20.24373 | 52.94558 | 36043 ft | 419 kts | 283° |
| 2026-04-11 23:50 | -20.22824 | 52.88572 | 36044 ft | 419 kts | 283° |
| 2026-04-11 23:51 | -20.21274 | 52.82582 | 36043 ft | 420 kts | 283° |
| 2026-04-11 23:51 | -20.19722 | 52.76596 | 36044 ft | 420 kts | 283° |
| 2026-04-11 23:52 | -20.18167 | 52.70602 | 36041 ft | 420 kts | 283° |
| 2026-04-11 23:52 | -20.16608 | 52.64603 | 36045 ft | 421 kts | 283° |
| 2026-04-11 23:53 | -20.15046 | 52.58599 | 36041 ft | 421 kts | 283° |
| 2026-04-11 23:53 | -20.13482 | 52.52599 | 36041 ft | 421 kts | 283° |
| 2026-04-11 23:54 | -20.11913 | 52.46591 | 36043 ft | 421 kts | 283° |
| 2026-04-11 23:54 | -20.10344 | 52.40588 | 36043 ft | 421 kts | 283° |
| 2026-04-11 23:55 | -20.08772 | 52.34584 | 36049 ft | 421 kts | 283° |
| 2026-04-11 23:55 | -20.07199 | 52.28587 | 36046 ft | 421 kts | 283° |
| 2026-04-11 23:56 | -20.05624 | 52.22590 | 36043 ft | 421 kts | 283° |
| 2026-04-11 23:56 | -20.04049 | 52.16600 | 36046 ft | 420 kts | 283° |
| 2026-04-11 23:57 | -20.02475 | 52.10624 | 36047 ft | 420 kts | 283° |
| 2026-04-11 23:57 | -20.00898 | 52.04645 | 36046 ft | 420 kts | 283° |
| 2026-04-11 23:58 | -19.99390 | 51.98934 | 36041 ft | 420 kts | 283° |
| 2026-04-11 23:58 | -19.97809 | 51.92960 | 36049 ft | 420 kts | 283° |
| 2026-04-11 23:59 | -19.96227 | 51.86987 | 36043 ft | 420 kts | 283° |
| 2026-04-11 23:59 | -19.94649 | 51.81040 | 36043 ft | 421 kts | 283° |
| 2026-04-12 00:00 | -19.93049 | 51.75017 | 36049 ft | 421 kts | 283° |
| 2026-04-12 00:00 | -19.91467 | 51.69073 | 36050 ft | 421 kts | 283° |
| 2026-04-12 00:01 | -19.89874 | 51.63094 | 36053 ft | 421 kts | 283° |
| 2026-04-12 00:01 | -19.88275 | 51.57101 | 36039 ft | 421 kts | 283° |
| 2026-04-12 00:02 | -19.86675 | 51.51116 | 36047 ft | 421 kts | 283° |
| 2026-04-12 00:02 | -19.85074 | 51.45134 | 36046 ft | 421 kts | 283° |
| 2026-04-12 00:03 | -19.83471 | 51.39153 | 36045 ft | 421 kts | 283° |
| 2026-04-12 00:03 | -19.82126 | 51.34139 | 36044 ft | 421 kts | 283° |
| 2026-04-12 00:04 | -19.80517 | 51.28153 | 36040 ft | 421 kts | 283° |
| 2026-04-12 00:04 | -19.78921 | 51.22221 | 36049 ft | 421 kts | 283° |
| 2026-04-12 00:05 | -19.77309 | 51.16242 | 36050 ft | 421 kts | 284° |
| 2026-04-12 00:05 | -19.75696 | 51.10262 | 36049 ft | 421 kts | 284° |
| 2026-04-12 00:06 | -19.74081 | 51.04287 | 36039 ft | 421 kts | 284° |
| 2026-04-12 00:06 | -19.72540 | 50.98596 | 36036 ft | 421 kts | 284° |
| 2026-04-12 00:07 | -19.70920 | 50.92616 | 36030 ft | 421 kts | 284° |
| 2026-04-12 00:07 | -19.69301 | 50.86653 | 36032 ft | 421 kts | 284° |
| 2026-04-12 00:08 | -19.67679 | 50.80685 | 36045 ft | 421 kts | 284° |
| 2026-04-12 00:08 | -19.66053 | 50.74711 | 36043 ft | 421 kts | 284° |
| 2026-04-12 00:09 | -19.64429 | 50.68751 | 36034 ft | 421 kts | 284° |
| 2026-04-12 00:09 | -19.62801 | 50.62789 | 36036 ft | 421 kts | 284° |
| 2026-04-12 00:10 | -19.61173 | 50.56831 | 36039 ft | 421 kts | 284° |
| 2026-04-12 00:10 | -19.59540 | 50.50866 | 36038 ft | 421 kts | 284° |
| 2026-04-12 00:11 | -19.57907 | 50.44909 | 36038 ft | 421 kts | 284° |
| 2026-04-12 00:11 | -19.56273 | 50.38953 | 36037 ft | 421 kts | 284° |
| 2026-04-12 00:12 | -19.54634 | 50.32992 | 36039 ft | 421 kts | 284° |
| 2026-04-12 00:12 | -19.52996 | 50.27041 | 36039 ft | 421 kts | 284° |
| 2026-04-12 00:13 | -19.51355 | 50.21085 | 36038 ft | 421 kts | 284° |
| 2026-04-12 00:13 | -19.49714 | 50.15136 | 36037 ft | 421 kts | 284° |
| 2026-04-12 00:14 | -19.48068 | 50.09180 | 36039 ft | 421 kts | 284° |
| 2026-04-12 00:14 | -19.46422 | 50.03239 | 36038 ft | 421 kts | 284° |
| 2026-04-12 00:15 | -19.44840 | 49.97554 | 36041 ft | 421 kts | 284° |
| 2026-04-12 00:15 | -19.43194 | 49.91647 | 36035 ft | 421 kts | 284° |
| 2026-04-12 00:16 | -19.41537 | 49.85704 | 36036 ft | 421 kts | 284° |
| 2026-04-12 00:16 | -19.39877 | 49.79757 | 36035 ft | 421 kts | 284° |
| 2026-04-12 00:17 | -19.38217 | 49.73817 | 36029 ft | 421 kts | 284° |
| 2026-04-12 00:17 | -19.36554 | 49.67872 | 36035 ft | 421 kts | 284° |
| 2026-04-12 00:18 | -19.34888 | 49.61928 | 36034 ft | 421 kts | 284° |
| 2026-04-12 00:18 | -19.33220 | 49.55981 | 36039 ft | 421 kts | 284° |
| 2026-04-12 00:19 | -19.31549 | 49.50038 | 36042 ft | 421 kts | 284° |
| 2026-04-12 00:19 | -19.29878 | 49.44097 | 36040 ft | 421 kts | 284° |
| 2026-04-12 00:20 | -19.28203 | 49.38151 | 36041 ft | 421 kts | 284° |
| 2026-04-12 00:20 | -19.26525 | 49.32206 | 36051 ft | 421 kts | 284° |
| 2026-04-12 00:21 | -19.24848 | 49.26271 | 36050 ft | 421 kts | 284° |
| 2026-04-12 00:21 | -19.23169 | 49.20335 | 36054 ft | 421 kts | 284° |
| 2026-04-12 00:22 | -19.21488 | 49.14402 | 36063 ft | 421 kts | 284° |
| 2026-04-12 00:22 | -19.19804 | 49.08464 | 36062 ft | 421 kts | 284° |
| 2026-04-12 00:23 | -19.18117 | 49.02526 | 36065 ft | 421 kts | 284° |
| 2026-04-12 00:23 | -19.16508 | 48.96868 | 36066 ft | 421 kts | 284° |
| 2026-04-12 00:24 | -19.14829 | 48.90972 | 36077 ft | 421 kts | 284° |
| 2026-04-12 00:24 | -19.13138 | 48.85041 | 36066 ft | 421 kts | 284° |
| 2026-04-12 00:25 | -19.11448 | 48.79121 | 36084 ft | 421 kts | 284° |
| 2026-04-12 00:25 | -19.09754 | 48.73198 | 36103 ft | 421 kts | 284° |
| 2026-04-12 00:26 | -19.08056 | 48.67266 | 36097 ft | 421 kts | 284° |
| 2026-04-12 00:26 | -19.06359 | 48.61344 | 36114 ft | 421 kts | 284° |
| 2026-04-12 00:27 | -19.04657 | 48.55417 | 36129 ft | 421 kts | 284° |
| 2026-04-12 00:27 | -19.02954 | 48.49491 | 36129 ft | 422 kts | 284° |
| 2026-04-12 00:28 | -19.01247 | 48.43556 | 36141 ft | 422 kts | 285° |
| 2026-04-12 00:28 | -18.99547 | 48.37656 | 36157 ft | 422 kts | 285° |
| 2026-04-12 00:29 | -18.97836 | 48.31727 | 36152 ft | 422 kts | 285° |
| 2026-04-12 00:29 | -18.96122 | 48.25793 | 36164 ft | 422 kts | 285° |
| 2026-04-12 00:30 | -18.94588 | 48.19827 | 36170 ft | 420 kts | 281° |
| 2026-04-12 00:30 | -18.93337 | 48.13789 | 36188 ft | 420 kts | 281° |
| 2026-04-12 00:31 | -18.92090 | 48.07766 | 36189 ft | 420 kts | 281° |
| 2026-04-12 00:31 | -18.90829 | 48.01731 | 36186 ft | 421 kts | 281° |
| 2026-04-12 00:32 | -18.89618 | 47.95964 | 36196 ft | 421 kts | 281° |
| 2026-04-12 00:32 | -18.88350 | 47.89935 | 36193 ft | 421 kts | 281° |
| 2026-04-12 00:33 | -18.87085 | 47.83937 | 36208 ft | 421 kts | 281° |
| 2026-04-12 00:33 | -18.85811 | 47.77899 | 36202 ft | 422 kts | 281° |
| 2026-04-12 00:34 | -18.84533 | 47.71855 | 36210 ft | 422 kts | 281° |
| 2026-04-12 00:34 | -18.83242 | 47.65758 | 36202 ft | 423 kts | 281° |
| 2026-04-12 00:35 | -18.81966 | 47.59743 | 36204 ft | 423 kts | 281° |
| 2026-04-12 00:35 | -18.80680 | 47.53690 | 36213 ft | 423 kts | 281° |
| 2026-04-12 00:36 | -18.79299 | 47.47654 | 36213 ft | 423 kts | 283° |
| 2026-04-12 00:36 | -18.77737 | 47.41657 | 36215 ft | 423 kts | 284° |
| 2026-04-12 00:37 | -18.76172 | 47.35675 | 36204 ft | 423 kts | 284° |
| 2026-04-12 00:37 | -18.74625 | 47.29678 | 36208 ft | 424 kts | 283° |
| 2026-04-12 00:38 | -18.73087 | 47.23679 | 36205 ft | 424 kts | 283° |
| 2026-04-12 00:38 | -18.71549 | 47.17675 | 36189 ft | 424 kts | 284° |
| 2026-04-12 00:39 | -18.70005 | 47.11660 | 36179 ft | 425 kts | 284° |
| 2026-04-12 00:39 | -18.68458 | 47.05645 | 36180 ft | 425 kts | 284° |
| 2026-04-12 00:40 | -18.66958 | 46.99817 | 36173 ft | 426 kts | 284° |
| 2026-04-12 00:40 | -18.65426 | 46.93877 | 36160 ft | 427 kts | 284° |
| 2026-04-12 00:41 | -18.63867 | 46.87839 | 36157 ft | 427 kts | 284° |
| 2026-04-12 00:41 | -18.62307 | 46.81807 | 36159 ft | 427 kts | 284° |
| 2026-04-12 00:42 | -18.60744 | 46.75773 | 36147 ft | 426 kts | 284° |
| 2026-04-12 00:42 | -18.59182 | 46.69748 | 36150 ft | 426 kts | 284° |
| 2026-04-12 00:43 | -18.56844 | 46.60744 | 36140 ft | 426 kts | 284° |
| 2026-04-12 00:43 | -18.55278 | 46.54723 | 36127 ft | 426 kts | 284° |
| 2026-04-12 00:44 | -18.53699 | 46.48666 | 36123 ft | 426 kts | 284° |
| 2026-04-12 00:44 | -18.52121 | 46.42641 | 36122 ft | 426 kts | 284° |
| 2026-04-12 00:45 | -18.50553 | 46.36662 | 36105 ft | 426 kts | 284° |
| 2026-04-12 00:45 | -18.48971 | 46.30637 | 36108 ft | 427 kts | 284° |
| 2026-04-12 00:46 | -18.47386 | 46.24603 | 36113 ft | 428 kts | 284° |
| 2026-04-12 00:46 | -18.45793 | 46.18550 | 36105 ft | 428 kts | 284° |
| 2026-04-12 00:47 | -18.44200 | 46.12504 | 36100 ft | 429 kts | 284° |
| 2026-04-12 00:47 | -18.42602 | 46.06447 | 36091 ft | 430 kts | 284° |
| 2026-04-12 00:48 | -18.41001 | 46.00385 | 36084 ft | 430 kts | 284° |
| 2026-04-12 00:48 | -18.39473 | 45.94611 | 36080 ft | 430 kts | 284° |
| 2026-04-12 00:49 | -18.37866 | 45.88545 | 36090 ft | 430 kts | 284° |
| 2026-04-12 00:49 | -18.36530 | 45.83508 | 36079 ft | 430 kts | 284° |
| 2026-04-12 00:50 | -18.34918 | 45.77438 | 36080 ft | 430 kts | 284° |
| 2026-04-12 00:50 | -18.33305 | 45.71372 | 36079 ft | 431 kts | 284° |
| 2026-04-12 00:51 | -18.31687 | 45.65300 | 36074 ft | 431 kts | 284° |
| 2026-04-12 00:51 | -18.30070 | 45.59235 | 36061 ft | 431 kts | 284° |
| 2026-04-12 00:52 | -18.28449 | 45.53166 | 36053 ft | 431 kts | 284° |
| 2026-04-12 00:52 | -18.26825 | 45.47091 | 36058 ft | 431 kts | 284° |
| 2026-04-12 00:53 | -18.25199 | 45.41019 | 36052 ft | 431 kts | 284° |
| 2026-04-12 00:53 | -18.23569 | 45.34939 | 36030 ft | 432 kts | 284° |
| 2026-04-12 00:54 | -18.21939 | 45.28870 | 36028 ft | 432 kts | 284° |
| 2026-04-12 00:54 | -18.20304 | 45.22786 | 36017 ft | 432 kts | 284° |
| 2026-04-12 00:55 | -18.18666 | 45.16703 | 36005 ft | 432 kts | 284° |
| 2026-04-12 00:55 | -18.17030 | 45.10633 | 36008 ft | 432 kts | 284° |
| 2026-04-12 00:56 | -18.15389 | 45.04554 | 35997 ft | 432 kts | 285° |
| 2026-04-12 00:56 | -18.13828 | 44.98777 | 36008 ft | 432 kts | 284° |
| 2026-04-12 00:57 | -18.12180 | 44.92693 | 36005 ft | 433 kts | 284° |
| 2026-04-12 00:57 | -18.10527 | 44.86597 | 35997 ft | 434 kts | 284° |
| 2026-04-12 00:58 | -18.08881 | 44.80531 | 35996 ft | 434 kts | 284° |
| 2026-04-12 00:58 | -18.07212 | 44.74391 | 35997 ft | 434 kts | 285° |
| 2026-04-12 00:59 | -18.05552 | 44.68290 | 35994 ft | 434 kts | 285° |
| 2026-04-12 00:59 | -18.03902 | 44.62234 | 35995 ft | 434 kts | 285° |
| 2026-04-12 01:00 | -18.02240 | 44.56140 | 35992 ft | 434 kts | 285° |
| 2026-04-12 01:00 | -18.00576 | 44.50047 | 35996 ft | 434 kts | 285° |
| 2026-04-12 01:01 | -17.98916 | 44.43982 | 35988 ft | 435 kts | 285° |
| 2026-04-12 01:01 | -17.97243 | 44.37873 | 35982 ft | 436 kts | 285° |
| 2026-04-12 01:02 | -17.95565 | 44.31755 | 35982 ft | 436 kts | 285° |
| 2026-04-12 01:02 | -17.93885 | 44.25638 | 35975 ft | 436 kts | 285° |
| 2026-04-12 01:03 | -17.92205 | 44.19527 | 35976 ft | 436 kts | 285° |
| 2026-04-12 01:03 | -17.90521 | 44.13411 | 35979 ft | 436 kts | 285° |
| 2026-04-12 01:04 | -17.88836 | 44.07302 | 35977 ft | 436 kts | 285° |
| 2026-04-12 01:04 | -17.87148 | 44.01188 | 35970 ft | 436 kts | 285° |
| 2026-04-12 01:05 | -17.85535 | 43.95353 | 35978 ft | 437 kts | 285° |
| 2026-04-12 01:05 | -17.83839 | 43.89223 | 35969 ft | 438 kts | 285° |
| 2026-04-12 01:06 | -17.82139 | 43.83092 | 35975 ft | 437 kts | 285° |
| 2026-04-12 01:06 | -17.80439 | 43.76964 | 35973 ft | 438 kts | 285° |
| 2026-04-12 01:07 | -17.78735 | 43.70834 | 35974 ft | 438 kts | 285° |
| 2026-04-12 01:08 | -17.76172 | 43.61626 | 35970 ft | 438 kts | 285° |
| 2026-04-12 01:08 | -17.74471 | 43.55522 | 35977 ft | 439 kts | 285° |
| 2026-04-12 01:09 | -17.72753 | 43.49371 | 35974 ft | 440 kts | 285° |
| 2026-04-12 01:09 | -17.71032 | 43.43212 | 35969 ft | 440 kts | 285° |
| 2026-04-12 01:10 | -17.69310 | 43.37063 | 35972 ft | 440 kts | 285° |
| 2026-04-12 01:10 | -17.67585 | 43.30908 | 35976 ft | 440 kts | 285° |
| 2026-04-12 01:11 | -17.65860 | 43.24761 | 35979 ft | 439 kts | 285° |
| 2026-04-12 01:11 | -17.64132 | 43.18612 | 35974 ft | 440 kts | 285° |
| 2026-04-12 01:12 | -17.62402 | 43.12462 | 35980 ft | 440 kts | 285° |
| 2026-04-12 01:12 | -17.60666 | 43.06298 | 35978 ft | 441 kts | 285° |
| 2026-04-12 01:13 | -17.58926 | 43.00130 | 35970 ft | 442 kts | 285° |
| 2026-04-12 01:13 | -17.57266 | 42.94252 | 35971 ft | 442 kts | 285° |
| 2026-04-12 01:14 | -17.55522 | 42.88086 | 35978 ft | 442 kts | 285° |
| 2026-04-12 01:14 | -17.53774 | 42.81913 | 35975 ft | 442 kts | 285° |
| 2026-04-12 01:15 | -17.52025 | 42.75744 | 35978 ft | 442 kts | 286° |
| 2026-04-12 01:15 | -17.50275 | 42.69579 | 35978 ft | 442 kts | 286° |
| 2026-04-12 01:16 | -17.48522 | 42.63413 | 35977 ft | 441 kts | 286° |
| 2026-04-12 01:16 | -17.46770 | 42.57255 | 35977 ft | 442 kts | 286° |
| 2026-04-12 01:17 | -17.45011 | 42.51085 | 35975 ft | 442 kts | 286° |
| 2026-04-12 01:17 | -17.43252 | 42.44919 | 35976 ft | 442 kts | 286° |
| 2026-04-12 01:18 | -17.41492 | 42.38761 | 35974 ft | 442 kts | 286° |
| 2026-04-12 01:18 | -17.39729 | 42.32595 | 35983 ft | 442 kts | 286° |
| 2026-04-12 01:19 | -17.37961 | 42.26422 | 35986 ft | 443 kts | 286° |
| 2026-04-12 01:19 | -17.36188 | 42.20242 | 35983 ft | 443 kts | 286° |
| 2026-04-12 01:20 | -17.34411 | 42.14050 | 35988 ft | 444 kts | 286° |
| 2026-04-12 01:20 | -17.32630 | 42.07856 | 35979 ft | 445 kts | 286° |
| 2026-04-12 01:21 | -17.30845 | 42.01655 | 35983 ft | 445 kts | 286° |
| 2026-04-12 01:21 | -17.29137 | 41.95728 | 35973 ft | 445 kts | 286° |
| 2026-04-12 01:22 | -17.27348 | 41.89528 | 35982 ft | 445 kts | 286° |
| 2026-04-12 01:22 | -17.25566 | 41.83359 | 35985 ft | 445 kts | 286° |
| 2026-04-12 01:23 | -17.23773 | 41.77160 | 35982 ft | 445 kts | 286° |
| 2026-04-12 01:23 | -17.21977 | 41.70955 | 35979 ft | 446 kts | 286° |
| 2026-04-12 01:24 | -17.20473 | 41.64667 | 35983 ft | 446 kts | 282° |
| 2026-04-12 01:24 | -17.19101 | 41.58342 | 35983 ft | 446 kts | 282° |
| 2026-04-12 01:25 | -17.17725 | 41.52014 | 35985 ft | 447 kts | 283° |
| 2026-04-12 01:25 | -17.16331 | 41.45680 | 35984 ft | 447 kts | 283° |
| 2026-04-12 01:26 | -17.14928 | 41.39345 | 35991 ft | 447 kts | 283° |
| 2026-04-12 01:26 | -17.13524 | 41.33016 | 35986 ft | 447 kts | 283° |
| 2026-04-12 01:27 | -17.12113 | 41.26670 | 35992 ft | 448 kts | 283° |
| 2026-04-12 01:27 | -17.10701 | 41.20322 | 35982 ft | 449 kts | 283° |
| 2026-04-12 01:28 | -17.09284 | 41.13967 | 35990 ft | 449 kts | 283° |
| 2026-04-12 01:28 | -17.07866 | 41.07612 | 35974 ft | 449 kts | 283° |
| 2026-04-12 01:29 | -17.06443 | 41.01249 | 35990 ft | 450 kts | 283° |
| 2026-04-12 01:29 | -17.05082 | 40.95168 | 35995 ft | 450 kts | 283° |
| 2026-04-12 01:30 | -17.03661 | 40.88831 | 35994 ft | 451 kts | 283° |
| 2026-04-12 01:30 | -17.02220 | 40.82416 | 35999 ft | 451 kts | 283° |
| 2026-04-12 01:31 | -17.00796 | 40.76084 | 35994 ft | 451 kts | 283° |
| 2026-04-12 01:31 | -16.99362 | 40.69717 | 36000 ft | 451 kts | 283° |
| 2026-04-12 01:32 | -16.97922 | 40.63337 | 35992 ft | 451 kts | 283° |
| 2026-04-12 01:32 | -16.96485 | 40.56974 | 35997 ft | 451 kts | 283° |
| 2026-04-12 01:33 | -16.95041 | 40.50593 | 35996 ft | 451 kts | 283° |
| 2026-04-12 01:33 | -16.93594 | 40.44207 | 36001 ft | 451 kts | 283° |
| 2026-04-12 01:34 | -16.92146 | 40.37825 | 35997 ft | 451 kts | 283° |
| 2026-04-12 01:34 | -16.90695 | 40.31451 | 36002 ft | 451 kts | 283° |
| 2026-04-12 01:35 | -16.89240 | 40.25079 | 36003 ft | 451 kts | 283° |
| 2026-04-12 01:35 | -16.87783 | 40.18706 | 35995 ft | 452 kts | 283° |
| 2026-04-12 01:36 | -16.86559 | 40.13354 | 36000 ft | 452 kts | 283° |
| 2026-04-12 01:36 | -16.85106 | 40.07012 | 36001 ft | 452 kts | 283° |
| 2026-04-12 01:37 | -16.83641 | 40.00623 | 35991 ft | 453 kts | 283° |
| 2026-04-12 01:37 | -16.82228 | 39.94473 | 36008 ft | 453 kts | 283° |
| 2026-04-12 01:38 | -16.80757 | 39.88079 | 35998 ft | 454 kts | 283° |
| 2026-04-12 01:38 | -16.79281 | 39.81677 | 35996 ft | 454 kts | 283° |
| 2026-04-12 01:39 | -16.77803 | 39.75269 | 36001 ft | 454 kts | 283° |
| 2026-04-12 01:39 | -16.76322 | 39.68863 | 36002 ft | 454 kts | 283° |
| 2026-04-12 01:40 | -16.74839 | 39.62453 | 36005 ft | 455 kts | 283° |
| 2026-04-12 01:40 | -16.73353 | 39.56038 | 36005 ft | 455 kts | 284° |
| 2026-04-12 01:41 | -16.71861 | 39.49623 | 36007 ft | 455 kts | 284° |
| 2026-04-12 01:41 | -16.70350 | 39.43206 | 36011 ft | 456 kts | 284° |
| 2026-04-12 01:42 | -16.68830 | 39.36782 | 36016 ft | 456 kts | 284° |
| 2026-04-12 01:42 | -16.67310 | 39.30353 | 36016 ft | 457 kts | 284° |
| 2026-04-12 01:43 | -16.65788 | 39.23919 | 36013 ft | 457 kts | 284° |
| 2026-04-12 01:43 | -16.64264 | 39.17485 | 36014 ft | 457 kts | 284° |
| 2026-04-12 01:44 | -16.62738 | 39.11055 | 36017 ft | 457 kts | 284° |
| 2026-04-12 01:44 | -16.61489 | 39.05793 | 36014 ft | 457 kts | 284° |
| 2026-04-12 01:45 | -16.60015 | 38.99598 | 36023 ft | 457 kts | 284° |
| 2026-04-12 01:45 | -16.58486 | 38.93176 | 36025 ft | 457 kts | 284° |
| 2026-04-12 01:46 | -16.56954 | 38.86737 | 36028 ft | 458 kts | 284° |
| 2026-04-12 01:46 | -16.55468 | 38.80285 | 36026 ft | 458 kts | 284° |
| 2026-04-12 01:47 | -16.54003 | 38.73872 | 36030 ft | 458 kts | 284° |
| 2026-04-12 01:47 | -16.52520 | 38.67414 | 36032 ft | 458 kts | 284° |
| 2026-04-12 01:48 | -16.51029 | 38.60950 | 36026 ft | 459 kts | 284° |
| 2026-04-12 01:48 | -16.49538 | 38.54492 | 36033 ft | 459 kts | 284° |
| 2026-04-12 01:49 | -16.48061 | 38.48026 | 36030 ft | 459 kts | 283° |
| 2026-04-12 01:49 | -16.46745 | 38.41517 | 36035 ft | 459 kts | 282° |
| 2026-04-12 01:50 | -16.45457 | 38.34999 | 36033 ft | 459 kts | 282° |
| 2026-04-12 01:50 | -16.44147 | 38.28498 | 36038 ft | 459 kts | 282° |
| 2026-04-12 01:51 | -16.42163 | 38.18739 | 36047 ft | 459 kts | 282° |
| 2026-04-12 01:51 | -16.40829 | 38.12232 | 36040 ft | 459 kts | 283° |
| 2026-04-12 01:52 | -16.39432 | 38.05738 | 36041 ft | 460 kts | 283° |
| 2026-04-12 01:52 | -16.38066 | 37.99462 | 36036 ft | 460 kts | 283° |
| 2026-04-12 01:53 | -16.36655 | 37.92964 | 36043 ft | 460 kts | 283° |
| 2026-04-12 01:53 | -16.35248 | 37.86466 | 36047 ft | 461 kts | 283° |
| 2026-04-12 01:54 | -16.33838 | 37.79954 | 36048 ft | 461 kts | 283° |
| 2026-04-12 01:54 | -16.32426 | 37.73448 | 36048 ft | 461 kts | 283° |
| 2026-04-12 01:55 | -16.31021 | 37.66980 | 36052 ft | 461 kts | 283° |
| 2026-04-12 01:55 | -16.29603 | 37.60465 | 36052 ft | 461 kts | 283° |
| 2026-04-12 01:56 | -16.28183 | 37.53950 | 36051 ft | 462 kts | 283° |
| 2026-04-12 01:56 | -16.26761 | 37.47437 | 36061 ft | 462 kts | 283° |
| 2026-04-12 01:57 | -16.25335 | 37.40916 | 36070 ft | 464 kts | 283° |
| 2026-04-12 01:57 | -16.24615 | 37.37627 | 36247 ft | 466 kts | 283° |
| 2026-04-12 01:57 | -16.23894 | 37.34340 | 36627 ft | 465 kts | 283° |
| 2026-04-12 01:58 | -16.23178 | 37.31074 | 37026 ft | 463 kts | 283° |
| 2026-04-12 01:58 | -16.22465 | 37.27822 | 37401 ft | 461 kts | 283° |
| 2026-04-12 01:58 | -16.21750 | 37.24565 | 37741 ft | 460 kts | 283° |
| 2026-04-12 01:58 | -16.21038 | 37.21323 | 37952 ft | 462 kts | 283° |
| 2026-04-12 01:59 | -16.19596 | 37.14770 | 38053 ft | 465 kts | 283° |
| 2026-04-12 01:59 | -16.18155 | 37.08234 | 38051 ft | 462 kts | 283° |
| 2026-04-12 02:00 | -16.16723 | 37.01741 | 38062 ft | 459 kts | 283° |
| 2026-04-12 02:00 | -16.15359 | 36.95572 | 38062 ft | 458 kts | 283° |
| 2026-04-12 02:01 | -16.13930 | 36.89117 | 38073 ft | 459 kts | 283° |
| 2026-04-12 02:01 | -16.12488 | 36.82613 | 38073 ft | 462 kts | 283° |
| 2026-04-12 02:02 | -16.11041 | 36.76093 | 38072 ft | 464 kts | 283° |
| 2026-04-12 02:02 | -16.09587 | 36.69551 | 38073 ft | 465 kts | 283° |
| 2026-04-12 02:03 | -16.08126 | 36.62994 | 38077 ft | 466 kts | 283° |
| 2026-04-12 02:03 | -16.06674 | 36.56481 | 38077 ft | 465 kts | 283° |
| 2026-04-12 02:04 | -16.05211 | 36.49930 | 38075 ft | 465 kts | 283° |
| 2026-04-12 02:04 | -16.03748 | 36.43390 | 38075 ft | 464 kts | 283° |
| 2026-04-12 02:05 | -16.02284 | 36.36855 | 38079 ft | 464 kts | 283° |
| 2026-04-12 02:05 | -16.00818 | 36.30319 | 38081 ft | 464 kts | 283° |
| 2026-04-12 02:06 | -15.99356 | 36.23810 | 38074 ft | 465 kts | 283° |
| 2026-04-12 02:06 | -15.97846 | 36.17278 | 38077 ft | 465 kts | 285° |
| 2026-04-12 02:07 | -15.96083 | 36.10807 | 38078 ft | 466 kts | 287° |
| 2026-04-12 02:07 | -15.94280 | 36.04341 | 38076 ft | 466 kts | 286° |
| 2026-04-12 02:08 | -15.92574 | 35.98099 | 38079 ft | 465 kts | 286° |
| 2026-04-12 02:08 | -15.90825 | 35.91637 | 38074 ft | 464 kts | 286° |
| 2026-04-12 02:09 | -15.89080 | 35.85199 | 38081 ft | 463 kts | 286° |
| 2026-04-12 02:09 | -15.87335 | 35.78773 | 38081 ft | 462 kts | 286° |
| 2026-04-12 02:10 | -15.85648 | 35.72345 | 38080 ft | 461 kts | 284° |
| 2026-04-12 02:10 | -15.84198 | 35.65854 | 38092 ft | 462 kts | 283° |
| 2026-04-12 02:11 | -15.82773 | 35.59342 | 38083 ft | 463 kts | 283° |
| 2026-04-12 02:11 | -15.81312 | 35.52822 | 38087 ft | 464 kts | 284° |
| 2026-04-12 02:12 | -15.79830 | 35.46301 | 38083 ft | 465 kts | 284° |
| 2026-04-12 02:12 | -15.78338 | 35.39764 | 38090 ft | 466 kts | 284° |
| 2026-04-12 02:13 | -15.76843 | 35.33215 | 38091 ft | 466 kts | 284° |
| 2026-04-12 02:13 | -15.75347 | 35.26667 | 38082 ft | 466 kts | 284° |
| 2026-04-12 02:14 | -15.73851 | 35.20127 | 38077 ft | 466 kts | 284° |
| 2026-04-12 02:14 | -15.72353 | 35.13591 | 38077 ft | 465 kts | 284° |
| 2026-04-12 02:15 | -15.70854 | 35.07058 | 38081 ft | 465 kts | 284° |
| 2026-04-12 02:15 | -15.69356 | 35.00535 | 38072 ft | 465 kts | 284° |
| 2026-04-12 02:16 | -15.67912 | 34.94250 | 38070 ft | 466 kts | 283° |
| 2026-04-12 02:16 | -15.67040 | 34.87584 | 38074 ft | 468 kts | 273° |
| 2026-04-12 02:17 | -15.66791 | 34.80841 | 38082 ft | 468 kts | 273° |
| 2026-04-12 02:17 | -15.66549 | 34.74074 | 38082 ft | 469 kts | 273° |
| 2026-04-12 02:18 | -15.66277 | 34.67344 | 38082 ft | 471 kts | 273° |
| 2026-04-12 02:18 | -15.65985 | 34.60552 | 38087 ft | 472 kts | 273° |
| 2026-04-12 02:19 | -15.65689 | 34.53756 | 38085 ft | 472 kts | 273° |
| 2026-04-12 02:19 | -15.65392 | 34.46941 | 38090 ft | 473 kts | 273° |
| 2026-04-12 02:20 | -15.65093 | 34.40121 | 38081 ft | 473 kts | 273° |
| 2026-04-12 02:20 | -15.64791 | 34.33291 | 38083 ft | 474 kts | 273° |
| 2026-04-12 02:21 | -15.64487 | 34.26464 | 38078 ft | 474 kts | 273° |
| 2026-04-12 02:21 | -15.64181 | 34.19630 | 38089 ft | 474 kts | 273° |
| 2026-04-12 02:22 | -15.63925 | 34.13952 | 38091 ft | 474 kts | 273° |
| 2026-04-12 02:22 | -15.63613 | 34.07060 | 38081 ft | 475 kts | 273° |
| 2026-04-12 02:23 | -15.63303 | 34.00273 | 38078 ft | 474 kts | 273° |
| 2026-04-12 02:23 | -15.63007 | 33.93733 | 38081 ft | 474 kts | 273° |
| 2026-04-12 02:24 | -15.62697 | 33.86897 | 38071 ft | 474 kts | 273° |
| 2026-04-12 02:24 | -15.62386 | 33.80059 | 38073 ft | 474 kts | 273° |
| 2026-04-12 02:25 | -15.62072 | 33.73233 | 38068 ft | 474 kts | 273° |
| 2026-04-12 02:25 | -15.61756 | 33.66398 | 38063 ft | 474 kts | 273° |
| 2026-04-12 02:26 | -15.61436 | 33.59563 | 38061 ft | 474 kts | 273° |
| 2026-04-12 02:26 | -15.61115 | 33.52730 | 38063 ft | 474 kts | 273° |
| 2026-04-12 02:27 | -15.60791 | 33.45897 | 38062 ft | 475 kts | 273° |
| 2026-04-12 02:27 | -15.60465 | 33.39050 | 38060 ft | 475 kts | 273° |
| 2026-04-12 02:28 | -15.60137 | 33.32214 | 38059 ft | 475 kts | 273° |
| 2026-04-12 02:28 | -15.59807 | 33.25371 | 38054 ft | 475 kts | 274° |
| 2026-04-12 02:29 | -15.59474 | 33.18524 | 38058 ft | 475 kts | 274° |
| 2026-04-12 02:29 | -15.59140 | 33.11682 | 38058 ft | 475 kts | 274° |
| 2026-04-12 02:30 | -15.58804 | 33.04838 | 38065 ft | 475 kts | 274° |
| 2026-04-12 02:30 | -15.58479 | 32.98266 | 38062 ft | 475 kts | 274° |
| 2026-04-12 02:31 | -15.58161 | 32.91424 | 38059 ft | 475 kts | 273° |
| 2026-04-12 02:31 | -15.57852 | 32.84584 | 38060 ft | 475 kts | 274° |
| 2026-04-12 02:32 | -15.57538 | 32.77746 | 38054 ft | 474 kts | 274° |
| 2026-04-12 02:32 | -15.57220 | 32.70921 | 38053 ft | 473 kts | 273° |
| 2026-04-12 02:33 | -15.56904 | 32.64159 | 38052 ft | 473 kts | 274° |
| 2026-04-12 02:33 | -15.56584 | 32.57304 | 38057 ft | 473 kts | 273° |
| 2026-04-12 02:34 | -15.56266 | 32.50526 | 38068 ft | 474 kts | 273° |
| 2026-04-12 02:34 | -15.55943 | 32.43691 | 38068 ft | 475 kts | 273° |
| 2026-04-12 02:35 | -15.55616 | 32.36834 | 38066 ft | 477 kts | 273° |
| 2026-04-12 02:35 | -15.55286 | 32.29960 | 38068 ft | 478 kts | 273° |
| 2026-04-12 02:36 | -15.54954 | 32.23073 | 38060 ft | 479 kts | 273° |
| 2026-04-12 02:36 | -15.54620 | 32.16183 | 38062 ft | 479 kts | 273° |
| 2026-04-12 02:37 | -15.54282 | 32.09277 | 38057 ft | 479 kts | 273° |
| 2026-04-12 02:37 | -15.53943 | 32.02381 | 38063 ft | 479 kts | 273° |
| 2026-04-12 02:38 | -15.53616 | 31.95771 | 38061 ft | 479 kts | 273° |
| 2026-04-12 02:38 | -15.53272 | 31.88872 | 38064 ft | 479 kts | 273° |
| 2026-04-12 02:39 | -15.52927 | 31.81975 | 38059 ft | 479 kts | 273° |
| 2026-04-12 02:39 | -15.52580 | 31.75077 | 38057 ft | 479 kts | 273° |
| 2026-04-12 02:40 | -15.52223 | 31.68181 | 38059 ft | 478 kts | 273° |
| 2026-04-12 02:40 | -15.51855 | 31.61297 | 38049 ft | 478 kts | 274° |
| 2026-04-12 02:41 | -15.51485 | 31.54432 | 38054 ft | 477 kts | 274° |
| 2026-04-12 02:41 | -15.51116 | 31.47575 | 38049 ft | 476 kts | 273° |
| 2026-04-12 02:42 | -15.50746 | 31.40720 | 38060 ft | 476 kts | 273° |
| 2026-04-12 02:43 | -15.50187 | 31.30450 | 38058 ft | 476 kts | 273° |
| 2026-04-12 02:43 | -15.49810 | 31.23588 | 38059 ft | 476 kts | 273° |
| 2026-04-12 02:44 | -15.49432 | 31.16728 | 38057 ft | 477 kts | 273° |
| 2026-04-12 02:44 | -15.49051 | 31.09864 | 38059 ft | 478 kts | 273° |
| 2026-04-12 02:45 | -15.48668 | 31.02987 | 38057 ft | 478 kts | 273° |
| 2026-04-12 02:45 | -15.48299 | 30.96408 | 38058 ft | 478 kts | 273° |
| 2026-04-12 02:46 | -15.47910 | 30.89512 | 38052 ft | 479 kts | 273° |
| 2026-04-12 02:46 | -15.47520 | 30.82626 | 38064 ft | 479 kts | 273° |
| 2026-04-12 02:47 | -15.47127 | 30.75730 | 38062 ft | 479 kts | 273° |
| 2026-04-12 02:47 | -15.46738 | 30.68874 | 38058 ft | 479 kts | 273° |
| 2026-04-12 02:48 | -15.46350 | 30.61987 | 38053 ft | 479 kts | 273° |
| 2026-04-12 02:48 | -15.45960 | 30.55093 | 38054 ft | 479 kts | 273° |
| 2026-04-12 02:49 | -15.45568 | 30.48207 | 38051 ft | 479 kts | 273° |
| 2026-04-12 02:49 | -15.45174 | 30.41318 | 38051 ft | 478 kts | 273° |
| 2026-04-12 02:50 | -15.44776 | 30.34435 | 38051 ft | 478 kts | 273° |
| 2026-04-12 02:50 | -15.44376 | 30.27552 | 38055 ft | 478 kts | 273° |
| 2026-04-12 02:51 | -15.43974 | 30.20672 | 38051 ft | 478 kts | 273° |
| 2026-04-12 02:51 | -15.43569 | 30.13792 | 38055 ft | 478 kts | 273° |
| 2026-04-12 02:52 | -15.43164 | 30.06924 | 38052 ft | 478 kts | 273° |
| 2026-04-12 02:52 | -15.42756 | 30.00049 | 38057 ft | 478 kts | 273° |
| 2026-04-12 02:53 | -15.42365 | 29.93491 | 38060 ft | 478 kts | 273° |
| 2026-04-12 02:53 | -15.41746 | 29.83173 | 38058 ft | 478 kts | 273° |
| 2026-04-12 02:54 | -15.41330 | 29.76291 | 38058 ft | 478 kts | 273° |
| 2026-04-12 02:54 | -15.40913 | 29.69413 | 38064 ft | 479 kts | 273° |
| 2026-04-12 02:55 | -15.40492 | 29.62518 | 38066 ft | 479 kts | 273° |
| 2026-04-12 02:55 | -15.40070 | 29.55630 | 38074 ft | 479 kts | 273° |
| 2026-04-12 02:56 | -15.39645 | 29.48738 | 38069 ft | 479 kts | 273° |
| 2026-04-12 02:56 | -15.39218 | 29.41846 | 38079 ft | 479 kts | 273° |
| 2026-04-12 02:57 | -15.38788 | 29.34951 | 38083 ft | 479 kts | 273° |
| 2026-04-12 02:57 | -15.38357 | 29.28056 | 38081 ft | 480 kts | 273° |
| 2026-04-12 02:58 | -15.37923 | 29.21160 | 38087 ft | 480 kts | 273° |
| 2026-04-12 02:58 | -15.37488 | 29.14265 | 38090 ft | 480 kts | 273° |
| 2026-04-12 02:59 | -15.37050 | 29.07368 | 38096 ft | 480 kts | 273° |
| 2026-04-12 02:59 | -15.36610 | 29.00473 | 38098 ft | 480 kts | 273° |
| 2026-04-12 03:00 | -15.36189 | 28.93916 | 38099 ft | 480 kts | 273° |
| 2026-04-12 03:00 | -15.35745 | 28.87017 | 38102 ft | 480 kts | 273° |
| 2026-04-12 03:01 | -15.35298 | 28.80119 | 38106 ft | 480 kts | 273° |
| 2026-04-12 03:01 | -15.34850 | 28.73219 | 38129 ft | 480 kts | 274° |
| 2026-04-12 03:02 | -15.34399 | 28.66320 | 38153 ft | 480 kts | 273° |
| 2026-04-12 03:02 | -15.33946 | 28.59420 | 38170 ft | 480 kts | 274° |
| 2026-04-12 03:03 | -15.33492 | 28.52523 | 38185 ft | 480 kts | 274° |
| 2026-04-12 03:03 | -15.33058 | 28.45627 | 38184 ft | 480 kts | 270° |
| 2026-04-12 03:04 | -15.33497 | 28.38739 | 38190 ft | 479 kts | 260° |
| 2026-04-12 03:04 | -15.34918 | 28.32002 | 38180 ft | 479 kts | 256° |
| 2026-04-12 03:05 | -15.36452 | 28.25282 | 38152 ft | 480 kts | 256° |
| 2026-04-12 03:05 | -15.37961 | 28.18546 | 38132 ft | 480 kts | 257° |
| 2026-04-12 03:06 | -15.39442 | 28.11800 | 38104 ft | 480 kts | 256° |
| 2026-04-12 03:06 | -15.40913 | 28.05046 | 38101 ft | 480 kts | 257° |
| 2026-04-12 03:07 | -15.42318 | 27.98585 | 38101 ft | 480 kts | 257° |
| 2026-04-12 03:07 | -15.43787 | 27.91827 | 38102 ft | 480 kts | 257° |
| 2026-04-12 03:08 | -15.45007 | 27.86208 | 38103 ft | 480 kts | 257° |
| 2026-04-12 03:08 | -15.46471 | 27.79456 | 38100 ft | 480 kts | 257° |
| 2026-04-12 03:09 | -15.47935 | 27.72697 | 38102 ft | 480 kts | 257° |
| 2026-04-12 03:09 | -15.49394 | 27.65947 | 38100 ft | 480 kts | 257° |
| 2026-04-12 03:10 | -15.50852 | 27.59193 | 38099 ft | 480 kts | 257° |
| 2026-04-12 03:10 | -15.52307 | 27.52442 | 38101 ft | 480 kts | 257° |
| 2026-04-12 03:11 | -15.53761 | 27.45686 | 38104 ft | 480 kts | 257° |
| 2026-04-12 03:11 | -15.55210 | 27.38940 | 38101 ft | 480 kts | 257° |
| 2026-04-12 03:12 | -15.56661 | 27.32178 | 38099 ft | 480 kts | 257° |
| 2026-04-12 03:12 | -15.58098 | 27.25467 | 38101 ft | 480 kts | 257° |
| 2026-04-12 03:13 | -15.59551 | 27.18671 | 38101 ft | 480 kts | 257° |
| 2026-04-12 03:13 | -15.60992 | 27.11923 | 38100 ft | 480 kts | 257° |
| 2026-04-12 03:14 | -15.62422 | 27.05215 | 38101 ft | 480 kts | 257° |
| 2026-04-12 03:14 | -15.63803 | 26.98729 | 38101 ft | 480 kts | 257° |
| 2026-04-12 03:15 | -15.65239 | 26.91971 | 38100 ft | 480 kts | 257° |
| 2026-04-12 03:15 | -15.66672 | 26.85214 | 38103 ft | 480 kts | 257° |
| 2026-04-12 03:16 | -15.68106 | 26.78444 | 38103 ft | 480 kts | 257° |
| 2026-04-12 03:16 | -15.69537 | 26.71681 | 38104 ft | 480 kts | 257° |
| 2026-04-12 03:17 | -15.70358 | 26.64850 | 38105 ft | 479 kts | 274° |
| 2026-04-12 03:17 | -15.69822 | 26.61441 | 38109 ft | 480 kts | 285° |
| 2026-04-12 03:17 | -15.68666 | 26.58197 | 38094 ft | 479 kts | 296° |
| 2026-04-12 03:18 | -15.65593 | 26.52051 | 38106 ft | 481 kts | 297° |
| 2026-04-12 03:18 | -15.62468 | 26.45894 | 38104 ft | 483 kts | 297° |
| 2026-04-12 03:19 | -15.59391 | 26.39685 | 38101 ft | 484 kts | 296° |
| 2026-04-12 03:19 | -15.56337 | 26.33449 | 38101 ft | 485 kts | 296° |
| 2026-04-12 03:20 | -15.53284 | 26.27213 | 38104 ft | 485 kts | 296° |
| 2026-04-12 03:20 | -15.50224 | 26.20975 | 38096 ft | 485 kts | 296° |
| 2026-04-12 03:21 | -15.47159 | 26.14738 | 38100 ft | 485 kts | 296° |
| 2026-04-12 03:21 | -15.44096 | 26.08508 | 38098 ft | 485 kts | 296° |
| 2026-04-12 03:22 | -15.41033 | 26.02282 | 38097 ft | 485 kts | 296° |
| 2026-04-12 03:22 | -15.38112 | 25.96350 | 38095 ft | 484 kts | 296° |
| 2026-04-12 03:23 | -15.35028 | 25.90152 | 38095 ft | 484 kts | 297° |
| 2026-04-12 03:23 | -15.31903 | 25.83970 | 38096 ft | 484 kts | 297° |
| 2026-04-12 03:24 | -15.28774 | 25.77789 | 38095 ft | 484 kts | 297° |
| 2026-04-12 03:24 | -15.25651 | 25.71608 | 38095 ft | 485 kts | 297° |
| 2026-04-12 03:25 | -15.22525 | 25.65421 | 38095 ft | 485 kts | 297° |
| 2026-04-12 03:25 | -15.19396 | 25.59232 | 38094 ft | 485 kts | 297° |
| 2026-04-12 03:26 | -15.16265 | 25.53044 | 38099 ft | 486 kts | 297° |
| 2026-04-12 03:26 | -15.13131 | 25.46854 | 38100 ft | 486 kts | 297° |
| 2026-04-12 03:27 | -15.09989 | 25.40656 | 38099 ft | 486 kts | 297° |
| 2026-04-12 03:27 | -15.06846 | 25.34461 | 38098 ft | 486 kts | 297° |
| 2026-04-12 03:28 | -15.03703 | 25.28270 | 38097 ft | 486 kts | 296° |
| 2026-04-12 03:28 | -15.00556 | 25.22077 | 38099 ft | 486 kts | 297° |
| 2026-04-12 03:29 | -14.97441 | 25.15950 | 38096 ft | 486 kts | 297° |
| 2026-04-12 03:29 | -14.94292 | 25.09764 | 38095 ft | 487 kts | 297° |
| 2026-04-12 03:30 | -14.91158 | 25.03610 | 38098 ft | 486 kts | 297° |
| 2026-04-12 03:30 | -14.88126 | 24.97664 | 38093 ft | 486 kts | 296° |
| 2026-04-12 03:31 | -14.84952 | 24.91442 | 38096 ft | 486 kts | 296° |
| 2026-04-12 03:31 | -14.81822 | 24.85308 | 38094 ft | 486 kts | 296° |
| 2026-04-12 03:32 | -14.78668 | 24.79137 | 38094 ft | 485 kts | 297° |
| 2026-04-12 03:32 | -14.75344 | 24.73068 | 38093 ft | 486 kts | 300° |
| 2026-04-12 03:33 | -14.71868 | 24.67086 | 38092 ft | 486 kts | 300° |
| 2026-04-12 03:33 | -14.68409 | 24.61092 | 38090 ft | 485 kts | 299° |
| 2026-04-12 03:34 | -14.64981 | 24.55085 | 38086 ft | 486 kts | 299° |
| 2026-04-12 03:34 | -14.61559 | 24.49075 | 38080 ft | 486 kts | 299° |
| 2026-04-12 03:35 | -14.58134 | 24.43066 | 38087 ft | 486 kts | 299° |
| 2026-04-12 03:35 | -14.54703 | 24.37056 | 38084 ft | 486 kts | 299° |
| 2026-04-12 03:36 | -14.51275 | 24.31055 | 38080 ft | 485 kts | 299° |
| 2026-04-12 03:36 | -14.47852 | 24.25066 | 38079 ft | 485 kts | 299° |
| 2026-04-12 03:37 | -14.44376 | 24.19108 | 38079 ft | 484 kts | 300° |
| 2026-04-12 03:37 | -14.40811 | 24.13210 | 38077 ft | 484 kts | 301° |
| 2026-04-12 03:38 | -14.37240 | 24.07318 | 38076 ft | 484 kts | 301° |
| 2026-04-12 03:38 | -14.33692 | 24.01438 | 38076 ft | 482 kts | 300° |
| 2026-04-12 03:39 | -14.30307 | 23.95817 | 38072 ft | 481 kts | 300° |
| 2026-04-12 03:39 | -14.26776 | 23.89952 | 38073 ft | 480 kts | 300° |
| 2026-04-12 03:40 | -14.23256 | 23.84112 | 38068 ft | 480 kts | 300° |
| 2026-04-12 03:40 | -14.19734 | 23.78274 | 38068 ft | 479 kts | 300° |
| 2026-04-12 03:41 | -14.16215 | 23.72445 | 38070 ft | 479 kts | 300° |
| 2026-04-12 03:41 | -14.12696 | 23.66620 | 38064 ft | 478 kts | 300° |
| 2026-04-12 03:42 | -14.09181 | 23.60807 | 38063 ft | 478 kts | 300° |
| 2026-04-12 03:42 | -14.05665 | 23.54995 | 38062 ft | 478 kts | 300° |
| 2026-04-12 03:43 | -14.02151 | 23.49191 | 38060 ft | 477 kts | 300° |
| 2026-04-12 03:43 | -13.98674 | 23.43452 | 38061 ft | 477 kts | 300° |
| 2026-04-12 03:44 | -13.95161 | 23.37657 | 38058 ft | 477 kts | 300° |
| 2026-04-12 03:44 | -13.91653 | 23.31876 | 38057 ft | 476 kts | 300° |
| 2026-04-12 03:45 | -13.88145 | 23.26098 | 38060 ft | 475 kts | 300° |
| 2026-04-12 03:45 | -13.84643 | 23.20333 | 38058 ft | 475 kts | 300° |
| 2026-04-12 03:46 | -13.81140 | 23.14571 | 38056 ft | 475 kts | 300° |
| 2026-04-12 03:46 | -13.77641 | 23.08820 | 38049 ft | 474 kts | 300° |
| 2026-04-12 03:47 | -13.74136 | 23.03063 | 38053 ft | 474 kts | 300° |
| 2026-04-12 03:47 | -13.70776 | 22.97546 | 38056 ft | 474 kts | 300° |
| 2026-04-12 03:48 | -13.67279 | 22.91811 | 38050 ft | 473 kts | 300° |
| 2026-04-12 03:48 | -13.63781 | 22.86077 | 38050 ft | 473 kts | 300° |
| 2026-04-12 03:49 | -13.60284 | 22.80348 | 38054 ft | 473 kts | 300° |
| 2026-04-12 03:49 | -13.56784 | 22.74616 | 38055 ft | 472 kts | 301° |
| 2026-04-12 03:50 | -13.53294 | 22.68908 | 38044 ft | 471 kts | 301° |
| 2026-04-12 03:50 | -13.49808 | 22.63208 | 38049 ft | 470 kts | 301° |
| 2026-04-12 03:51 | -13.46349 | 22.57557 | 38044 ft | 470 kts | 300° |
| 2026-04-12 03:51 | -13.42871 | 22.51877 | 38044 ft | 470 kts | 300° |
| 2026-04-12 03:52 | -13.39387 | 22.46193 | 38049 ft | 470 kts | 301° |
| 2026-04-12 03:52 | -13.35906 | 22.40515 | 38044 ft | 470 kts | 301° |
| 2026-04-12 03:53 | -13.32983 | 22.35751 | 38048 ft | 471 kts | 301° |
| 2026-04-12 03:53 | -13.29493 | 22.30066 | 38046 ft | 471 kts | 301° |
| 2026-04-12 03:54 | -13.25996 | 22.24374 | 38048 ft | 472 kts | 301° |
| 2026-04-12 03:54 | -13.22493 | 22.18676 | 38045 ft | 472 kts | 301° |
| 2026-04-12 03:55 | -13.19009 | 22.13012 | 38040 ft | 472 kts | 301° |
| 2026-04-12 03:55 | -13.15506 | 22.07320 | 38046 ft | 472 kts | 301° |
| 2026-04-12 03:56 | -13.12005 | 22.01633 | 38043 ft | 471 kts | 301° |
| 2026-04-12 03:56 | -13.08636 | 21.96219 | 38036 ft | 470 kts | 301° |
| 2026-04-12 03:57 | -13.05069 | 21.90600 | 38042 ft | 470 kts | 302° |
| 2026-04-12 03:57 | -13.01499 | 21.84984 | 38042 ft | 470 kts | 302° |
| 2026-04-12 03:58 | -12.97979 | 21.79437 | 38045 ft | 469 kts | 301° |
| 2026-04-12 03:58 | -12.94422 | 21.73826 | 38041 ft | 469 kts | 301° |
| 2026-04-12 03:59 | -12.90874 | 21.68230 | 38039 ft | 468 kts | 301° |
| 2026-04-12 03:59 | -12.87324 | 21.62634 | 38041 ft | 468 kts | 301° |
| 2026-04-12 04:00 | -12.83779 | 21.57051 | 38043 ft | 468 kts | 301° |
| 2026-04-12 04:00 | -12.80230 | 21.51465 | 38044 ft | 468 kts | 301° |
| 2026-04-12 04:01 | -12.76679 | 21.45879 | 38042 ft | 468 kts | 301° |
| 2026-04-12 04:01 | -12.73126 | 21.40294 | 38041 ft | 468 kts | 301° |
| 2026-04-12 04:02 | -12.67791 | 21.31914 | 38041 ft | 468 kts | 301° |
| 2026-04-12 04:03 | -12.64229 | 21.26322 | 38041 ft | 469 kts | 301° |
| 2026-04-12 04:03 | -12.60667 | 21.20734 | 38035 ft | 469 kts | 301° |
| 2026-04-12 04:04 | -12.57103 | 21.15148 | 38044 ft | 469 kts | 301° |
| 2026-04-12 04:04 | -12.53536 | 21.09559 | 38047 ft | 469 kts | 301° |
| 2026-04-12 04:05 | -12.49970 | 21.03974 | 38046 ft | 468 kts | 301° |
| 2026-04-12 04:05 | -12.46548 | 20.98620 | 38049 ft | 468 kts | 301° |
| 2026-04-12 04:06 | -12.42984 | 20.93045 | 38046 ft | 468 kts | 301° |
| 2026-04-12 04:06 | -12.39425 | 20.87482 | 38050 ft | 468 kts | 301° |
| 2026-04-12 04:07 | -12.35861 | 20.81914 | 38049 ft | 467 kts | 301° |
| 2026-04-12 04:07 | -12.32299 | 20.76354 | 38046 ft | 467 kts | 301° |
| 2026-04-12 04:08 | -12.28759 | 20.70830 | 38047 ft | 467 kts | 301° |
| 2026-04-12 04:08 | -12.25176 | 20.65242 | 38053 ft | 467 kts | 301° |
| 2026-04-12 04:09 | -12.21636 | 20.59725 | 38054 ft | 467 kts | 301° |
| 2026-04-12 04:09 | -12.18070 | 20.54170 | 38055 ft | 467 kts | 301° |
| 2026-04-12 04:10 | -12.14507 | 20.48623 | 38057 ft | 467 kts | 301° |
| 2026-04-12 04:10 | -12.10937 | 20.43069 | 38058 ft | 467 kts | 301° |
| 2026-04-12 04:11 | -12.07369 | 20.37521 | 38054 ft | 467 kts | 301° |
| 2026-04-12 04:11 | -12.03800 | 20.31975 | 38058 ft | 467 kts | 301° |
| 2026-04-12 04:12 | -12.00230 | 20.26430 | 38048 ft | 467 kts | 301° |
| 2026-04-12 04:12 | -11.96700 | 20.20949 | 38054 ft | 467 kts | 301° |
| 2026-04-12 04:13 | -11.93126 | 20.15405 | 38062 ft | 467 kts | 301° |
| 2026-04-12 04:13 | -11.89552 | 20.09862 | 38056 ft | 467 kts | 301° |
| 2026-04-12 04:14 | -11.85974 | 20.04318 | 38062 ft | 467 kts | 301° |
| 2026-04-12 04:14 | -11.82542 | 19.99001 | 38058 ft | 468 kts | 301° |
| 2026-04-12 04:15 | -11.78962 | 19.93458 | 38061 ft | 468 kts | 301° |
| 2026-04-12 04:15 | -11.75659 | 19.87767 | 38060 ft | 465 kts | 293° |
| 2026-04-12 04:16 | -11.73084 | 19.81709 | 38064 ft | 465 kts | 291° |
| 2026-04-12 04:16 | -11.70554 | 19.75639 | 38066 ft | 465 kts | 291° |
| 2026-04-12 04:17 | -11.68002 | 19.69574 | 38059 ft | 465 kts | 292° |
| 2026-04-12 04:17 | -11.65432 | 19.63519 | 38067 ft | 465 kts | 292° |
| 2026-04-12 04:18 | -11.62857 | 19.57470 | 38069 ft | 465 kts | 292° |
| 2026-04-12 04:18 | -11.60276 | 19.51412 | 38064 ft | 465 kts | 292° |
| 2026-04-12 04:19 | -11.57696 | 19.45362 | 38070 ft | 465 kts | 292° |
| 2026-04-12 04:19 | -11.55131 | 19.39348 | 38070 ft | 465 kts | 292° |
| 2026-04-12 04:20 | -11.52531 | 19.33255 | 38066 ft | 466 kts | 292° |
| 2026-04-12 04:20 | -11.49962 | 19.27239 | 38063 ft | 466 kts | 292° |
| 2026-04-12 04:21 | -11.47376 | 19.21187 | 38061 ft | 466 kts | 292° |
| 2026-04-12 04:21 | -11.44787 | 19.15132 | 38067 ft | 465 kts | 292° |
| 2026-04-12 04:22 | -11.42200 | 19.09085 | 38062 ft | 465 kts | 292° |
| 2026-04-12 04:22 | -11.39611 | 19.03039 | 38052 ft | 465 kts | 292° |
| 2026-04-12 04:23 | -11.37130 | 18.97249 | 38080 ft | 465 kts | 292° |
| 2026-04-12 04:23 | -11.34536 | 18.91199 | 38064 ft | 466 kts | 292° |
| 2026-04-12 04:24 | -11.31939 | 18.85145 | 38060 ft | 466 kts | 292° |
| 2026-04-12 04:24 | -11.29340 | 18.79090 | 38060 ft | 466 kts | 292° |
| 2026-04-12 04:25 | -11.26739 | 18.73034 | 38057 ft | 466 kts | 292° |
| 2026-04-12 04:25 | -11.24136 | 18.66980 | 38051 ft | 466 kts | 292° |
| 2026-04-12 04:26 | -11.21534 | 18.60930 | 38051 ft | 466 kts | 292° |
| 2026-04-12 04:26 | -11.18930 | 18.54881 | 38052 ft | 466 kts | 292° |
| 2026-04-12 04:27 | -11.16327 | 18.48838 | 38052 ft | 466 kts | 292° |
| 2026-04-12 04:27 | -11.13724 | 18.42798 | 38055 ft | 466 kts | 292° |
| 2026-04-12 04:28 | -11.11137 | 18.36799 | 38048 ft | 466 kts | 292° |
| 2026-04-12 04:28 | -11.08534 | 18.30765 | 38046 ft | 466 kts | 292° |
| 2026-04-12 04:29 | -11.05929 | 18.24732 | 38050 ft | 465 kts | 292° |
| 2026-04-12 04:29 | -11.03323 | 18.18700 | 38047 ft | 466 kts | 292° |
| 2026-04-12 04:30 | -11.00714 | 18.12667 | 38043 ft | 466 kts | 292° |
| 2026-04-12 04:30 | -10.98133 | 18.06699 | 38051 ft | 465 kts | 292° |
| 2026-04-12 04:31 | -10.95523 | 18.00671 | 38045 ft | 465 kts | 292° |
| 2026-04-12 04:31 | -10.93020 | 17.94893 | 38039 ft | 466 kts | 292° |
| 2026-04-12 04:32 | -10.90404 | 17.88857 | 38040 ft | 466 kts | 292° |
| 2026-04-12 04:32 | -10.87790 | 17.82830 | 38041 ft | 466 kts | 292° |
| 2026-04-12 04:33 | -10.85175 | 17.76803 | 38040 ft | 466 kts | 292° |
| 2026-04-12 04:33 | -10.82556 | 17.70773 | 38039 ft | 466 kts | 292° |
| 2026-04-12 04:34 | -10.79938 | 17.64746 | 38046 ft | 466 kts | 292° |
| 2026-04-12 04:34 | -10.77319 | 17.58724 | 38031 ft | 466 kts | 292° |
| 2026-04-12 04:35 | -10.74696 | 17.52693 | 38033 ft | 466 kts | 292° |
| 2026-04-12 04:35 | -10.72071 | 17.46663 | 38036 ft | 467 kts | 292° |
| 2026-04-12 04:36 | -10.69441 | 17.40625 | 38034 ft | 467 kts | 292° |
| 2026-04-12 04:36 | -10.66811 | 17.34591 | 38030 ft | 467 kts | 292° |
| 2026-04-12 04:37 | -10.64182 | 17.28564 | 38026 ft | 466 kts | 292° |
| 2026-04-12 04:37 | -10.61997 | 17.23556 | 38027 ft | 466 kts | 292° |
| 2026-04-12 04:38 | -10.59372 | 17.17543 | 38040 ft | 465 kts | 292° |
| 2026-04-12 04:38 | -10.56746 | 17.11533 | 38028 ft | 465 kts | 292° |
| 2026-04-12 04:39 | -10.54123 | 17.05531 | 38024 ft | 465 kts | 292° |
| 2026-04-12 04:39 | -10.51613 | 16.99794 | 38030 ft | 465 kts | 292° |
| 2026-04-12 04:40 | -10.48981 | 16.93779 | 38031 ft | 466 kts | 292° |
| 2026-04-12 04:40 | -10.46348 | 16.87765 | 38026 ft | 466 kts | 293° |
| 2026-04-12 04:41 | -10.43706 | 16.81736 | 38029 ft | 468 kts | 293° |
| 2026-04-12 04:41 | -10.41057 | 16.75694 | 38022 ft | 468 kts | 293° |
| 2026-04-12 04:42 | -10.38405 | 16.69647 | 38019 ft | 469 kts | 293° |
| 2026-04-12 04:42 | -10.35746 | 16.63591 | 38029 ft | 470 kts | 293° |
| 2026-04-12 04:43 | -10.31746 | 16.54485 | 38023 ft | 471 kts | 293° |
| 2026-04-12 04:43 | -10.29077 | 16.48413 | 38034 ft | 471 kts | 293° |
| 2026-04-12 04:44 | -10.26403 | 16.42333 | 38041 ft | 471 kts | 293° |
| 2026-04-12 04:44 | -10.23728 | 16.36257 | 38038 ft | 471 kts | 293° |
| 2026-04-12 04:45 | -10.21053 | 16.30182 | 38039 ft | 471 kts | 293° |
| 2026-04-12 04:45 | -10.18379 | 16.24113 | 38018 ft | 471 kts | 293° |
| 2026-04-12 04:46 | -10.15703 | 16.18041 | 38013 ft | 471 kts | 293° |
| 2026-04-12 04:46 | -10.13027 | 16.11975 | 38035 ft | 471 kts | 293° |
| 2026-04-12 04:47 | -10.10345 | 16.05896 | 38034 ft | 472 kts | 293° |
| 2026-04-12 04:47 | -10.07701 | 15.99916 | 38018 ft | 473 kts | 294° |
| 2026-04-12 04:48 | -10.05071 | 15.93986 | 38035 ft | 473 kts | 293° |
| 2026-04-12 04:48 | -10.02371 | 15.87900 | 38023 ft | 473 kts | 293° |
| 2026-04-12 04:49 | -9.99707 | 15.81895 | 38023 ft | 472 kts | 293° |
| 2026-04-12 04:49 | -9.97008 | 15.75816 | 38023 ft | 472 kts | 293° |
| 2026-04-12 04:50 | -9.94314 | 15.69749 | 38019 ft | 472 kts | 293° |
| 2026-04-12 04:50 | -9.91619 | 15.63683 | 38011 ft | 471 kts | 293° |
| 2026-04-12 04:51 | -9.88927 | 15.57629 | 38020 ft | 471 kts | 293° |
| 2026-04-12 04:51 | -9.86236 | 15.51580 | 38018 ft | 470 kts | 293° |
| 2026-04-12 04:52 | -9.83548 | 15.45538 | 37994 ft | 470 kts | 293° |
| 2026-04-12 04:52 | -9.80861 | 15.39504 | 38011 ft | 470 kts | 294° |
| 2026-04-12 04:53 | -9.78162 | 15.33450 | 38004 ft | 471 kts | 294° |
| 2026-04-12 04:54 | -9.74186 | 15.24533 | 37991 ft | 473 kts | 293° |
| 2026-04-12 04:54 | -9.71431 | 15.18356 | 37989 ft | 473 kts | 293° |
| 2026-04-12 04:55 | -9.68717 | 15.12276 | 37988 ft | 473 kts | 293° |
| 2026-04-12 04:55 | -9.66001 | 15.06196 | 37972 ft | 474 kts | 293° |
| 2026-04-12 04:56 | -9.63285 | 15.00115 | 37968 ft | 474 kts | 293° |
| 2026-04-12 04:56 | -9.60614 | 14.94335 | 37851 ft | 467 kts | 295° |
| 2026-04-12 04:56 | -9.59191 | 14.91409 | 37509 ft | 459 kts | 295° |
| 2026-04-12 04:57 | -9.57768 | 14.88511 | 36772 ft | 461 kts | 295° |
| 2026-04-12 04:57 | -9.56340 | 14.85598 | 36032 ft | 463 kts | 295° |
| 2026-04-12 04:57 | -9.54912 | 14.82672 | 35387 ft | 462 kts | 294° |
| 2026-04-12 04:57 | -9.53494 | 14.79754 | 34659 ft | 464 kts | 294° |
| 2026-04-12 04:58 | -9.52062 | 14.76798 | 33688 ft | 471 kts | 294° |
| 2026-04-12 04:58 | -9.50615 | 14.73804 | 32672 ft | 477 kts | 295° |
| 2026-04-12 04:58 | -9.49148 | 14.70765 | 31697 ft | 481 kts | 295° |
| 2026-04-12 04:58 | -9.47671 | 14.67710 | 30747 ft | 485 kts | 296° |
| 2026-04-12 04:59 | -9.46183 | 14.64633 | 29802 ft | 487 kts | 296° |
| 2026-04-12 04:59 | -9.44719 | 14.61607 | 28695 ft | 471 kts | 296° |
| 2026-04-12 04:59 | -9.43298 | 14.58671 | 27670 ft | 457 kts | 296° |
| 2026-04-12 04:59 | -9.41919 | 14.55823 | 26662 ft | 444 kts | 297° |
| 2026-04-12 05:00 | -9.40578 | 14.53053 | 25700 ft | 433 kts | 297° |
| 2026-04-12 05:00 | -9.39266 | 14.50345 | 24766 ft | 424 kts | 297° |
| 2026-04-12 05:00 | -9.37982 | 14.47694 | 23867 ft | 414 kts | 297° |
| 2026-04-12 05:00 | -9.36725 | 14.45099 | 22873 ft | 406 kts | 297° |
| 2026-04-12 05:01 | -9.35492 | 14.42556 | 21851 ft | 399 kts | 297° |
| 2026-04-12 05:01 | -9.34280 | 14.40060 | 20862 ft | 392 kts | 297° |
| 2026-04-12 05:01 | -9.33089 | 14.37604 | 19896 ft | 386 kts | 296° |
| 2026-04-12 05:01 | -9.31915 | 14.35185 | 18954 ft | 380 kts | 296° |
| 2026-04-12 05:02 | -9.30758 | 14.32800 | 18043 ft | 375 kts | 296° |
| 2026-04-12 05:02 | -9.29617 | 14.30450 | 17023 ft | 370 kts | 296° |
| 2026-04-12 05:02 | -9.28513 | 14.28174 | 16667 ft | 348 kts | 296° |
| 2026-04-12 05:02 | -9.27470 | 14.26025 | 16246 ft | 331 kts | 296° |
| 2026-04-12 05:03 | -9.26476 | 14.23978 | 15874 ft | 319 kts | 296° |
| 2026-04-12 05:03 | -9.25495 | 14.21957 | 15516 ft | 323 kts | 296° |
| 2026-04-12 05:03 | -9.24487 | 14.19882 | 15151 ft | 336 kts | 296° |
| 2026-04-12 05:03 | -9.23446 | 14.17737 | 14740 ft | 349 kts | 296° |
| 2026-04-12 05:04 | -9.22356 | 14.15495 | 14289 ft | 352 kts | 296° |
| 2026-04-12 05:04 | -9.21290 | 14.13300 | 13872 ft | 353 kts | 296° |
| 2026-04-12 05:04 | -9.20205 | 14.11067 | 13404 ft | 352 kts | 296° |
| 2026-04-12 05:04 | -9.19123 | 14.08842 | 12943 ft | 351 kts | 296° |
| 2026-04-12 05:05 | -9.18046 | 14.06627 | 12504 ft | 350 kts | 296° |
| 2026-04-12 05:05 | -9.16974 | 14.04421 | 12088 ft | 349 kts | 296° |
| 2026-04-12 05:05 | -9.15904 | 14.02221 | 11665 ft | 348 kts | 296° |
| 2026-04-12 05:05 | -9.14835 | 14.00023 | 11232 ft | 347 kts | 296° |
| 2026-04-12 05:06 | -9.13861 | 13.98021 | 10883 ft | 346 kts | 296° |
| 2026-04-12 05:06 | -9.12811 | 13.95861 | 10744 ft | 336 kts | 296° |
| 2026-04-12 05:06 | -9.11793 | 13.93770 | 10595 ft | 327 kts | 296° |
| 2026-04-12 05:06 | -9.10800 | 13.91730 | 10462 ft | 318 kts | 297° |
| 2026-04-12 05:07 | -9.09838 | 13.89753 | 10324 ft | 310 kts | 297° |
| 2026-04-12 05:07 | -9.08898 | 13.87822 | 10203 ft | 301 kts | 297° |
| 2026-04-12 05:07 | -9.07986 | 13.85949 | 10079 ft | 292 kts | 297° |
| 2026-04-12 05:07 | -9.07097 | 13.84124 | 9881 ft | 287 kts | 297° |
| 2026-04-12 05:08 | -9.06398 | 13.82293 | 9752 ft | 273 kts | 284° |
| 2026-04-12 05:08 | -9.05691 | 13.80575 | 9448 ft | 262 kts | 314° |
| 2026-04-12 05:08 | -9.04219 | 13.79621 | 9098 ft | 248 kts | 354° |
| 2026-04-12 05:08 | -9.02593 | 13.79804 | 8717 ft | 233 kts | 33° |
| 2026-04-12 05:09 | -9.01239 | 13.80648 | 8284 ft | 230 kts | 26° |
| 2026-04-12 05:09 | -8.99676 | 13.80860 | 7948 ft | 238 kts | 354° |
| 2026-04-12 05:09 | -8.98081 | 13.80361 | 7682 ft | 243 kts | 339° |
| 2026-04-12 05:09 | -8.96540 | 13.79620 | 7380 ft | 247 kts | 339° |
| 2026-04-12 05:10 | -8.94955 | 13.78949 | 7073 ft | 247 kts | 342° |
| 2026-04-12 05:10 | -8.93358 | 13.78300 | 6776 ft | 248 kts | 340° |
| 2026-04-12 05:10 | -8.91778 | 13.77589 | 6474 ft | 249 kts | 337° |
| 2026-04-12 05:10 | -8.90264 | 13.76742 | 6139 ft | 249 kts | 323° |
| 2026-04-12 05:11 | -8.89241 | 13.75356 | 5818 ft | 249 kts | 289° |
| 2026-04-12 05:11 | -8.89093 | 13.73635 | 5492 ft | 245 kts | 255° |
| 2026-04-12 05:11 | -8.89791 | 13.72119 | 5231 ft | 236 kts | 233° |
| 2026-04-12 05:11 | -8.90770 | 13.70793 | 4950 ft | 234 kts | 230° |
| 2026-04-12 05:12 | -8.91756 | 13.69510 | 4691 ft | 225 kts | 230° |
| 2026-04-12 05:12 | -8.92685 | 13.68282 | 4377 ft | 215 kts | 230° |
| 2026-04-12 05:12 | -8.93561 | 13.67111 | 4094 ft | 203 kts | 230° |
| 2026-04-12 05:12 | -8.94392 | 13.65999 | 3828 ft | 193 kts | 230° |
| 2026-04-12 05:13 | -8.95199 | 13.64919 | 3613 ft | 193 kts | 230° |
| 2026-04-12 05:13 | -8.96006 | 13.63838 | 3371 ft | 189 kts | 230° |
| 2026-04-12 05:13 | -8.96790 | 13.62787 | 3128 ft | 187 kts | 230° |
| 2026-04-12 05:13 | -8.97571 | 13.61740 | 2875 ft | 184 kts | 230° |
| 2026-04-12 05:14 | -8.98310 | 13.60746 | 2661 ft | 168 kts | 229° |
| 2026-04-12 05:14 | -8.98982 | 13.59846 | 2432 ft | 155 kts | 229° |
| 2026-04-12 05:14 | -8.99629 | 13.58980 | 2271 ft | 156 kts | 229° |
| 2026-04-12 05:14 | -9.00287 | 13.58099 | 2053 ft | 155 kts | 229° |
| 2026-04-12 05:15 | -9.00921 | 13.57247 | 1837 ft | 148 kts | 229° |
| 2026-04-12 05:15 | -9.01538 | 13.56421 | 1669 ft | 147 kts | 229° |
| 2026-04-12 05:15 | -9.02157 | 13.55592 | 1471 ft | 148 kts | 230° |
| 2026-04-12 05:15 | -9.02777 | 13.54759 | 1275 ft | 148 kts | 230° |
| 2026-04-12 05:16 | -9.03392 | 13.53935 | 1089 ft | 147 kts | 231° |
| 2026-04-12 05:16 | -9.04013 | 13.53099 | 914 ft | 147 kts | 232° |
| 2026-04-12 05:16 | -9.04634 | 13.52274 | 710 ft | 148 kts | 232° |
| 2026-04-12 05:16 | -9.05253 | 13.51451 | 582 ft | 142 kts | 232° |
| 2026-04-12 05:17 | -9.05778 | 13.50747 | 584 ft | 105 kts | 233° |
| 2026-04-12 05:17 | -9.06125 | 13.50276 | 582 ft | 61 kts | 233° |
| 2026-04-12 05:17 | -9.06264 | 13.50049 | 583 ft | 27 kts | 251° |
| 2026-04-12 05:17 | -9.06290 | 13.49947 | 584 ft | 13 kts | 261° |
| 2026-04-12 05:18 | -9.06289 | 13.49866 | 582 ft | 7 kts | 289° |
| 2026-04-12 05:18 | -9.06275 | 13.49844 | 585 ft | 4 kts | 311° |
| 2026-04-12 05:18 | -9.06244 | 13.49836 | 582 ft | 5 kts | 6° |
| 2026-04-12 05:18 | -9.06210 | 13.49857 | 583 ft | 6 kts | 40° |
| 2026-04-12 05:19 | -9.06181 | 13.49893 | 583 ft | 7 kts | 53° |
| 2026-04-12 05:19 | -9.06148 | 13.49938 | 583 ft | 8 kts | 54° |
| 2026-04-12 05:19 | -9.06110 | 13.49985 | 583 ft | 9 kts | 41° |
| 2026-04-12 05:19 | -9.06048 | 13.49993 | 583 ft | 10 kts | 338° |
| 2026-04-12 05:20 | -9.05986 | 13.49956 | 582 ft | 11 kts | 325° |
| 2026-04-12 05:20 | -9.05923 | 13.49909 | 582 ft | 12 kts | 323° |
| 2026-04-12 05:20 | -9.05856 | 13.49859 | 583 ft | 12 kts | 324° |
| 2026-04-12 05:20 | -9.05785 | 13.49806 | 582 ft | 13 kts | 324° |
| 2026-04-12 05:21 | -9.05741 | 13.49778 | 583 ft | 11 kts | 337° |
| 2026-04-12 05:21 | -9.05654 | 13.49820 | 584 ft | 11 kts | 49° |
| 2026-04-12 05:21 | -9.05623 | 13.49861 | 583 ft | 10 kts | 53° |
| 2026-04-12 05:21 | -9.05596 | 13.49898 | 582 ft | 5 kts | 53° |
| 2026-04-12 05:22 | -9.05571 | 13.49931 | 582 ft | 6 kts | 53° |
| 2026-04-12 05:22 | -9.05534 | 13.49949 | 585 ft | 7 kts | 346° |
| 2026-04-12 05:22 | -9.05509 | 13.49935 | 579 ft | 2 kts | 326° |
| 2026-04-12 05:22 | -9.05495 | 13.49925 | 580 ft | 2 kts | 324° |
| 2026-04-12 05:23 | -9.05489 | 13.49920 | 582 ft | 1 kts | 324° |
| 2026-04-12 05:23 | -9.05485 | 13.49917 | 582 ft | 1 kts | 324° |